<?xml version="1.0" encoding="UTF-8" standalone="no" ?>
<gpx xmlns="http://www.topografix.com/GPX/1/1" xmlns:xsi="http://www.w3.org/2001/XMLSchema-instance" xsi:schemaLocation="http://www.topografix.com/GPX/1/1 http://www.topografix.com/GPX/1/1/gpx.xsd" version="1.1" creator="VisuGPX - https://www.visugpx.com">
  <metadata>
    <name>29-04-2017 Ciney - Andenne (Bel)</name>
    <desc><![CDATA[Itinéraire de détente en vélo électrique (VTC). ]]></desc>
  </metadata>
  <trk>
    <name><![CDATA[Tracé 29 avr. 2017 14:46:10]]></name>
    <trkseg>
      <trkpt lat="50.29632" lon="5.09903">
        <ele>268.36771429433</ele>
        <time>2017-04-29T12:48:10Z</time>
      </trkpt>
      <trkpt lat="50.29661" lon="5.09923">
        <ele>263.33896215312</ele>
        <time>2017-04-29T12:48:15Z</time>
      </trkpt>
      <trkpt lat="50.29689" lon="5.09944">
        <ele>260.87831588212</ele>
        <time>2017-04-29T12:48:20Z</time>
      </trkpt>
      <trkpt lat="50.29712" lon="5.09964">
        <ele>258.88563459778</ele>
        <time>2017-04-29T12:48:24Z</time>
      </trkpt>
      <trkpt lat="50.29741" lon="5.09995">
        <ele>257.3427253238</ele>
        <time>2017-04-29T12:48:29Z</time>
      </trkpt>
      <trkpt lat="50.29765" lon="5.10023">
        <ele>256.90422569323</ele>
        <time>2017-04-29T12:48:33Z</time>
      </trkpt>
      <trkpt lat="50.29784" lon="5.10053">
        <ele>255.36327843783</ele>
        <time>2017-04-29T12:48:37Z</time>
      </trkpt>
      <trkpt lat="50.29811" lon="5.10091">
        <ele>257.30005951185</ele>
        <time>2017-04-29T12:48:42Z</time>
      </trkpt>
      <trkpt lat="50.29818" lon="5.1011">
        <ele>258.55353222759</ele>
        <time>2017-04-29T12:48:46Z</time>
      </trkpt>
      <trkpt lat="50.29825" lon="5.10117">
        <ele>260.32918983604</ele>
        <time>2017-04-29T12:48:55Z</time>
      </trkpt>
      <trkpt lat="50.29849" lon="5.10121">
        <ele>261.09334524827</ele>
        <time>2017-04-29T12:48:59Z</time>
      </trkpt>
      <trkpt lat="50.29884" lon="5.10121">
        <ele>261.96743695829</ele>
        <time>2017-04-29T12:49:04Z</time>
      </trkpt>
      <trkpt lat="50.29924" lon="5.10119">
        <ele>260.13636653839</ele>
        <time>2017-04-29T12:49:09Z</time>
      </trkpt>
      <trkpt lat="50.29972" lon="5.10122">
        <ele>258.80807790312</ele>
        <time>2017-04-29T12:49:14Z</time>
      </trkpt>
      <trkpt lat="50.30016" lon="5.1012">
        <ele>256.6439225923</ele>
        <time>2017-04-29T12:49:19Z</time>
      </trkpt>
      <trkpt lat="50.30051" lon="5.10108">
        <ele>255.70373169346</ele>
        <time>2017-04-29T12:49:23Z</time>
      </trkpt>
      <trkpt lat="50.30096" lon="5.1008">
        <ele>255.39731091417</ele>
        <time>2017-04-29T12:49:28Z</time>
      </trkpt>
      <trkpt lat="50.30132" lon="5.10056">
        <ele>255.14263418764</ele>
        <time>2017-04-29T12:49:32Z</time>
      </trkpt>
      <trkpt lat="50.30178" lon="5.10027">
        <ele>252.59176975567</ele>
        <time>2017-04-29T12:49:37Z</time>
      </trkpt>
      <trkpt lat="50.30212" lon="5.10017">
        <ele>250.91212169797</ele>
        <time>2017-04-29T12:49:41Z</time>
      </trkpt>
      <trkpt lat="50.3024" lon="5.10012">
        <ele>247.67720786476</ele>
        <time>2017-04-29T12:49:45Z</time>
      </trkpt>
      <trkpt lat="50.3025" lon="5.09975">
        <ele>244.73169894367</ele>
        <time>2017-04-29T12:49:49Z</time>
      </trkpt>
      <trkpt lat="50.30226" lon="5.09965">
        <ele>242.9322675532</ele>
        <time>2017-04-29T12:49:53Z</time>
      </trkpt>
      <trkpt lat="50.30213" lon="5.09931">
        <ele>239.47214635029</ele>
        <time>2017-04-29T12:49:58Z</time>
      </trkpt>
      <trkpt lat="50.30215" lon="5.099">
        <ele>238.47316890753</ele>
        <time>2017-04-29T12:50:02Z</time>
      </trkpt>
      <trkpt lat="50.30223" lon="5.09857">
        <ele>239.28532037972</ele>
        <time>2017-04-29T12:50:07Z</time>
      </trkpt>
      <trkpt lat="50.30232" lon="5.0982">
        <ele>239.66432187888</ele>
        <time>2017-04-29T12:50:11Z</time>
      </trkpt>
      <trkpt lat="50.30242" lon="5.09781">
        <ele>241.76601791786</ele>
        <time>2017-04-29T12:50:15Z</time>
      </trkpt>
      <trkpt lat="50.30256" lon="5.09744">
        <ele>243.16505561757</ele>
        <time>2017-04-29T12:50:19Z</time>
      </trkpt>
      <trkpt lat="50.30269" lon="5.097">
        <ele>245.17831226223</ele>
        <time>2017-04-29T12:50:24Z</time>
      </trkpt>
      <trkpt lat="50.30279" lon="5.09681">
        <ele>246.4522202417</ele>
        <time>2017-04-29T12:50:28Z</time>
      </trkpt>
      <trkpt lat="50.30303" lon="5.0968">
        <ele>250.83289878148</ele>
        <time>2017-04-29T12:50:33Z</time>
      </trkpt>
      <trkpt lat="50.30331" lon="5.0968">
        <ele>250.70868635515</ele>
        <time>2017-04-29T12:50:37Z</time>
      </trkpt>
      <trkpt lat="50.30363" lon="5.09673">
        <ele>247.02972319474</ele>
        <time>2017-04-29T12:50:42Z</time>
      </trkpt>
      <trkpt lat="50.30389" lon="5.0966">
        <ele>243.93545802211</ele>
        <time>2017-04-29T12:50:46Z</time>
      </trkpt>
      <trkpt lat="50.3042" lon="5.09641">
        <ele>242.38615010797</ele>
        <time>2017-04-29T12:50:51Z</time>
      </trkpt>
      <trkpt lat="50.30441" lon="5.09628">
        <ele>243.10539440256</ele>
        <time>2017-04-29T12:50:55Z</time>
      </trkpt>
      <trkpt lat="50.30461" lon="5.09608">
        <ele>240.29554811563</ele>
        <time>2017-04-29T12:50:59Z</time>
      </trkpt>
      <trkpt lat="50.30486" lon="5.0959">
        <ele>237.91016295917</ele>
        <time>2017-04-29T12:51:03Z</time>
      </trkpt>
      <trkpt lat="50.30509" lon="5.09578">
        <ele>235.92801356743</ele>
        <time>2017-04-29T12:51:07Z</time>
      </trkpt>
      <trkpt lat="50.3053" lon="5.0956">
        <ele>238.62437802657</ele>
        <time>2017-04-29T12:51:11Z</time>
      </trkpt>
      <trkpt lat="50.30561" lon="5.09533">
        <ele>240.2224378654</ele>
        <time>2017-04-29T12:51:16Z</time>
      </trkpt>
      <trkpt lat="50.30583" lon="5.09519">
        <ele>244.08442241877</ele>
        <time>2017-04-29T12:51:20Z</time>
      </trkpt>
      <trkpt lat="50.30612" lon="5.09504">
        <ele>246.15580566877</ele>
        <time>2017-04-29T12:51:25Z</time>
      </trkpt>
      <trkpt lat="50.30644" lon="5.09483">
        <ele>245.05376347135</ele>
        <time>2017-04-29T12:51:30Z</time>
      </trkpt>
      <trkpt lat="50.30675" lon="5.09457">
        <ele>244.48152973223</ele>
        <time>2017-04-29T12:51:35Z</time>
      </trkpt>
      <trkpt lat="50.30698" lon="5.09444">
        <ele>247.44336000333</ele>
        <time>2017-04-29T12:51:39Z</time>
      </trkpt>
      <trkpt lat="50.30726" lon="5.0943">
        <ele>252.26030114475</ele>
        <time>2017-04-29T12:51:44Z</time>
      </trkpt>
      <trkpt lat="50.30746" lon="5.09418">
        <ele>251.44307984176</ele>
        <time>2017-04-29T12:51:49Z</time>
      </trkpt>
      <trkpt lat="50.30757" lon="5.0941">
        <ele>250.59180766918</ele>
        <time>2017-04-29T12:51:53Z</time>
      </trkpt>
      <trkpt lat="50.30776" lon="5.09404">
        <ele>249.38567861321</ele>
        <time>2017-04-29T12:51:57Z</time>
      </trkpt>
      <trkpt lat="50.30798" lon="5.094">
        <ele>248.28375772041</ele>
        <time>2017-04-29T12:52:01Z</time>
      </trkpt>
      <trkpt lat="50.30827" lon="5.09401">
        <ele>247.00481588448</ele>
        <time>2017-04-29T12:52:06Z</time>
      </trkpt>
      <trkpt lat="50.30849" lon="5.09409">
        <ele>248.62433714137</ele>
        <time>2017-04-29T12:52:10Z</time>
      </trkpt>
      <trkpt lat="50.30873" lon="5.09413">
        <ele>246.584067521</ele>
        <time>2017-04-29T12:52:14Z</time>
      </trkpt>
      <trkpt lat="50.30903" lon="5.09415">
        <ele>246.221971796</ele>
        <time>2017-04-29T12:52:19Z</time>
      </trkpt>
      <trkpt lat="50.30931" lon="5.09422">
        <ele>242.97426546291</ele>
        <time>2017-04-29T12:52:24Z</time>
      </trkpt>
      <trkpt lat="50.30965" lon="5.09446">
        <ele>246.01162103673</ele>
        <time>2017-04-29T12:52:29Z</time>
      </trkpt>
      <trkpt lat="50.30994" lon="5.09465">
        <ele>241.2777023763</ele>
        <time>2017-04-29T12:52:33Z</time>
      </trkpt>
      <trkpt lat="50.31022" lon="5.09483">
        <ele>238.09810106404</ele>
        <time>2017-04-29T12:52:37Z</time>
      </trkpt>
      <trkpt lat="50.31048" lon="5.09502">
        <ele>238.46498294695</ele>
        <time>2017-04-29T12:52:41Z</time>
      </trkpt>
      <trkpt lat="50.31074" lon="5.0952">
        <ele>237.05930615816</ele>
        <time>2017-04-29T12:52:45Z</time>
      </trkpt>
      <trkpt lat="50.31101" lon="5.09545">
        <ele>235.4383975943</ele>
        <time>2017-04-29T12:52:49Z</time>
      </trkpt>
      <trkpt lat="50.31118" lon="5.09569">
        <ele>234.58522249589</ele>
        <time>2017-04-29T12:52:53Z</time>
      </trkpt>
      <trkpt lat="50.31141" lon="5.09601">
        <ele>231.21706459877</ele>
        <time>2017-04-29T12:52:57Z</time>
      </trkpt>
      <trkpt lat="50.31164" lon="5.09631">
        <ele>230.3839194112</ele>
        <time>2017-04-29T12:53:01Z</time>
      </trkpt>
      <trkpt lat="50.31185" lon="5.09668">
        <ele>224.40758014953</ele>
        <time>2017-04-29T12:53:06Z</time>
      </trkpt>
      <trkpt lat="50.31199" lon="5.09705">
        <ele>221.72762815248</ele>
        <time>2017-04-29T12:53:10Z</time>
      </trkpt>
      <trkpt lat="50.31218" lon="5.09755">
        <ele>223.64968033759</ele>
        <time>2017-04-29T12:53:15Z</time>
      </trkpt>
      <trkpt lat="50.3123" lon="5.0979">
        <ele>229.0608901225</ele>
        <time>2017-04-29T12:53:19Z</time>
      </trkpt>
      <trkpt lat="50.31241" lon="5.0983">
        <ele>234.32220569558</ele>
        <time>2017-04-29T12:53:24Z</time>
      </trkpt>
      <trkpt lat="50.31248" lon="5.0984">
        <ele>234.67357337669</ele>
        <time>2017-04-29T12:53:28Z</time>
      </trkpt>
      <trkpt lat="50.31253" lon="5.09849">
        <ele>235.21027068443</ele>
        <time>2017-04-29T12:53:50Z</time>
      </trkpt>
      <trkpt lat="50.31257" lon="5.09889">
        <ele>237.04365612791</ele>
        <time>2017-04-29T12:53:55Z</time>
      </trkpt>
      <trkpt lat="50.31274" lon="5.09933">
        <ele>238.49059141265</ele>
        <time>2017-04-29T12:54:00Z</time>
      </trkpt>
      <trkpt lat="50.31287" lon="5.0997">
        <ele>233.7312586566</ele>
        <time>2017-04-29T12:54:04Z</time>
      </trkpt>
      <trkpt lat="50.31304" lon="5.10018">
        <ele>229.17152814446</ele>
        <time>2017-04-29T12:54:09Z</time>
      </trkpt>
      <trkpt lat="50.31315" lon="5.10057">
        <ele>226.20648529298</ele>
        <time>2017-04-29T12:54:13Z</time>
      </trkpt>
      <trkpt lat="50.31326" lon="5.10094">
        <ele>224.67061071045</ele>
        <time>2017-04-29T12:54:17Z</time>
      </trkpt>
      <trkpt lat="50.31341" lon="5.10133">
        <ele>224.1577772102</ele>
        <time>2017-04-29T12:54:21Z</time>
      </trkpt>
      <trkpt lat="50.31363" lon="5.1017">
        <ele>226.67929661649</ele>
        <time>2017-04-29T12:54:26Z</time>
      </trkpt>
      <trkpt lat="50.31379" lon="5.10203">
        <ele>229.51871112665</ele>
        <time>2017-04-29T12:54:30Z</time>
      </trkpt>
      <trkpt lat="50.31404" lon="5.10241">
        <ele>234.77909853555</ele>
        <time>2017-04-29T12:54:34Z</time>
      </trkpt>
      <trkpt lat="50.31429" lon="5.10286">
        <ele>235.7254536494</ele>
        <time>2017-04-29T12:54:39Z</time>
      </trkpt>
      <trkpt lat="50.31449" lon="5.10314">
        <ele>233.14801204209</ele>
        <time>2017-04-29T12:54:43Z</time>
      </trkpt>
      <trkpt lat="50.31472" lon="5.10332">
        <ele>230.72434882016</ele>
        <time>2017-04-29T12:54:47Z</time>
      </trkpt>
      <trkpt lat="50.31497" lon="5.10354">
        <ele>231.29037313713</ele>
        <time>2017-04-29T12:54:51Z</time>
      </trkpt>
      <trkpt lat="50.31525" lon="5.1039">
        <ele>236.22396015434</ele>
        <time>2017-04-29T12:54:56Z</time>
      </trkpt>
      <trkpt lat="50.31546" lon="5.10417">
        <ele>236.51279362981</ele>
        <time>2017-04-29T12:55:00Z</time>
      </trkpt>
      <trkpt lat="50.3157" lon="5.10446">
        <ele>233.44810367429</ele>
        <time>2017-04-29T12:55:05Z</time>
      </trkpt>
      <trkpt lat="50.31594" lon="5.10481">
        <ele>232.38122479453</ele>
        <time>2017-04-29T12:55:10Z</time>
      </trkpt>
      <trkpt lat="50.31614" lon="5.1051">
        <ele>232.88643575991</ele>
        <time>2017-04-29T12:55:14Z</time>
      </trkpt>
      <trkpt lat="50.31642" lon="5.10547">
        <ele>233.95449948459</ele>
        <time>2017-04-29T12:55:19Z</time>
      </trkpt>
      <trkpt lat="50.31665" lon="5.10571">
        <ele>235.45413842686</ele>
        <time>2017-04-29T12:55:23Z</time>
      </trkpt>
      <trkpt lat="50.31688" lon="5.10589">
        <ele>236.46996620009</ele>
        <time>2017-04-29T12:55:27Z</time>
      </trkpt>
      <trkpt lat="50.31712" lon="5.10613">
        <ele>239.78073780925</ele>
        <time>2017-04-29T12:55:31Z</time>
      </trkpt>
      <trkpt lat="50.31736" lon="5.10649">
        <ele>235.23618141248</ele>
        <time>2017-04-29T12:55:35Z</time>
      </trkpt>
      <trkpt lat="50.3176" lon="5.10689">
        <ele>232.53719417642</ele>
        <time>2017-04-29T12:55:40Z</time>
      </trkpt>
      <trkpt lat="50.31786" lon="5.1072">
        <ele>231.73366082289</ele>
        <time>2017-04-29T12:55:45Z</time>
      </trkpt>
      <trkpt lat="50.31807" lon="5.10753">
        <ele>233.28913527575</ele>
        <time>2017-04-29T12:55:50Z</time>
      </trkpt>
      <trkpt lat="50.31823" lon="5.10785">
        <ele>234.24374760064</ele>
        <time>2017-04-29T12:55:54Z</time>
      </trkpt>
      <trkpt lat="50.3184" lon="5.10819">
        <ele>234.81557858296</ele>
        <time>2017-04-29T12:55:58Z</time>
      </trkpt>
      <trkpt lat="50.31854" lon="5.10852">
        <ele>234.25233213501</ele>
        <time>2017-04-29T12:56:02Z</time>
      </trkpt>
      <trkpt lat="50.31873" lon="5.10898">
        <ele>235.01601185111</ele>
        <time>2017-04-29T12:56:07Z</time>
      </trkpt>
      <trkpt lat="50.31887" lon="5.10933">
        <ele>236.16027436156</ele>
        <time>2017-04-29T12:56:11Z</time>
      </trkpt>
      <trkpt lat="50.319" lon="5.10969">
        <ele>237.79471618541</ele>
        <time>2017-04-29T12:56:15Z</time>
      </trkpt>
      <trkpt lat="50.31914" lon="5.11004">
        <ele>240.17470308715</ele>
        <time>2017-04-29T12:56:20Z</time>
      </trkpt>
      <trkpt lat="50.31928" lon="5.11044">
        <ele>239.59175350255</ele>
        <time>2017-04-29T12:56:24Z</time>
      </trkpt>
      <trkpt lat="50.31945" lon="5.11092">
        <ele>237.42923049512</ele>
        <time>2017-04-29T12:56:29Z</time>
      </trkpt>
      <trkpt lat="50.3196" lon="5.11135">
        <ele>236.15219334438</ele>
        <time>2017-04-29T12:56:33Z</time>
      </trkpt>
      <trkpt lat="50.31979" lon="5.11185">
        <ele>234.43669345706</ele>
        <time>2017-04-29T12:56:38Z</time>
      </trkpt>
      <trkpt lat="50.31991" lon="5.11222">
        <ele>233.99750232089</ele>
        <time>2017-04-29T12:56:42Z</time>
      </trkpt>
      <trkpt lat="50.32008" lon="5.11267">
        <ele>234.60200819762</ele>
        <time>2017-04-29T12:56:47Z</time>
      </trkpt>
      <trkpt lat="50.3202" lon="5.11305">
        <ele>234.20532444648</ele>
        <time>2017-04-29T12:56:51Z</time>
      </trkpt>
      <trkpt lat="50.32033" lon="5.11343">
        <ele>233.09065444832</ele>
        <time>2017-04-29T12:56:55Z</time>
      </trkpt>
      <trkpt lat="50.32047" lon="5.1138">
        <ele>230.97885438826</ele>
        <time>2017-04-29T12:56:59Z</time>
      </trkpt>
      <trkpt lat="50.32064" lon="5.1143">
        <ele>229.38382715778</ele>
        <time>2017-04-29T12:57:04Z</time>
      </trkpt>
      <trkpt lat="50.3208" lon="5.11469">
        <ele>228.61984909075</ele>
        <time>2017-04-29T12:57:08Z</time>
      </trkpt>
      <trkpt lat="50.32097" lon="5.11505">
        <ele>229.8213321682</ele>
        <time>2017-04-29T12:57:12Z</time>
      </trkpt>
      <trkpt lat="50.32116" lon="5.11546">
        <ele>231.42883539</ele>
        <time>2017-04-29T12:57:17Z</time>
      </trkpt>
      <trkpt lat="50.32133" lon="5.11591">
        <ele>233.52664533124</ele>
        <time>2017-04-29T12:57:22Z</time>
      </trkpt>
      <trkpt lat="50.32146" lon="5.11634">
        <ele>234.14894121559</ele>
        <time>2017-04-29T12:57:26Z</time>
      </trkpt>
      <trkpt lat="50.32156" lon="5.11673">
        <ele>234.19156223019</ele>
        <time>2017-04-29T12:57:30Z</time>
      </trkpt>
      <trkpt lat="50.32165" lon="5.1171">
        <ele>232.04198845706</ele>
        <time>2017-04-29T12:57:34Z</time>
      </trkpt>
      <trkpt lat="50.32174" lon="5.11745">
        <ele>229.64725889615</ele>
        <time>2017-04-29T12:57:38Z</time>
      </trkpt>
      <trkpt lat="50.32179" lon="5.11764">
        <ele>228.86945139213</ele>
        <time>2017-04-29T12:57:42Z</time>
      </trkpt>
      <trkpt lat="50.3219" lon="5.11793">
        <ele>228.3682550545</ele>
        <time>2017-04-29T12:57:46Z</time>
      </trkpt>
      <trkpt lat="50.32203" lon="5.11833">
        <ele>230.13679159222</ele>
        <time>2017-04-29T12:57:50Z</time>
      </trkpt>
      <trkpt lat="50.32215" lon="5.11871">
        <ele>232.74524326338</ele>
        <time>2017-04-29T12:57:54Z</time>
      </trkpt>
      <trkpt lat="50.32233" lon="5.11919">
        <ele>234.71518213266</ele>
        <time>2017-04-29T12:57:59Z</time>
      </trkpt>
      <trkpt lat="50.32246" lon="5.11966">
        <ele>231.49295801564</ele>
        <time>2017-04-29T12:58:04Z</time>
      </trkpt>
      <trkpt lat="50.32263" lon="5.12024">
        <ele>232.89956632306</ele>
        <time>2017-04-29T12:58:09Z</time>
      </trkpt>
      <trkpt lat="50.32279" lon="5.1206">
        <ele>232.76303648961</ele>
        <time>2017-04-29T12:58:13Z</time>
      </trkpt>
      <trkpt lat="50.32296" lon="5.12104">
        <ele>231.03580858427</ele>
        <time>2017-04-29T12:58:18Z</time>
      </trkpt>
      <trkpt lat="50.32311" lon="5.12142">
        <ele>231.69707186053</ele>
        <time>2017-04-29T12:58:22Z</time>
      </trkpt>
      <trkpt lat="50.32328" lon="5.12181">
        <ele>235.28754923471</ele>
        <time>2017-04-29T12:58:26Z</time>
      </trkpt>
      <trkpt lat="50.32346" lon="5.12228">
        <ele>239.18825086701</ele>
        <time>2017-04-29T12:58:31Z</time>
      </trkpt>
      <trkpt lat="50.32359" lon="5.12263">
        <ele>238.92742745737</ele>
        <time>2017-04-29T12:58:35Z</time>
      </trkpt>
      <trkpt lat="50.32373" lon="5.12297">
        <ele>237.48356309067</ele>
        <time>2017-04-29T12:58:39Z</time>
      </trkpt>
      <trkpt lat="50.32395" lon="5.12342">
        <ele>236.29566151952</ele>
        <time>2017-04-29T12:58:44Z</time>
      </trkpt>
      <trkpt lat="50.32412" lon="5.12373">
        <ele>233.81616706837</ele>
        <time>2017-04-29T12:58:48Z</time>
      </trkpt>
      <trkpt lat="50.32426" lon="5.12406">
        <ele>234.82039295852</ele>
        <time>2017-04-29T12:58:52Z</time>
      </trkpt>
      <trkpt lat="50.3244" lon="5.12432">
        <ele>237.58677151117</ele>
        <time>2017-04-29T12:58:57Z</time>
      </trkpt>
      <trkpt lat="50.32459" lon="5.12463">
        <ele>236.30063620434</ele>
        <time>2017-04-29T12:59:02Z</time>
      </trkpt>
      <trkpt lat="50.32477" lon="5.12496">
        <ele>233.15353075114</ele>
        <time>2017-04-29T12:59:06Z</time>
      </trkpt>
      <trkpt lat="50.32491" lon="5.12523">
        <ele>232.90141258762</ele>
        <time>2017-04-29T12:59:10Z</time>
      </trkpt>
      <trkpt lat="50.3251" lon="5.12555">
        <ele>233.74324415336</ele>
        <time>2017-04-29T12:59:14Z</time>
      </trkpt>
      <trkpt lat="50.32532" lon="5.12596">
        <ele>232.06960243364</ele>
        <time>2017-04-29T12:59:19Z</time>
      </trkpt>
      <trkpt lat="50.32554" lon="5.12634">
        <ele>230.02261587967</ele>
        <time>2017-04-29T12:59:24Z</time>
      </trkpt>
      <trkpt lat="50.32571" lon="5.12665">
        <ele>227.1912876154</ele>
        <time>2017-04-29T12:59:28Z</time>
      </trkpt>
      <trkpt lat="50.32595" lon="5.12704">
        <ele>225.26305247373</ele>
        <time>2017-04-29T12:59:33Z</time>
      </trkpt>
      <trkpt lat="50.32612" lon="5.12726">
        <ele>227.33989144239</ele>
        <time>2017-04-29T12:59:37Z</time>
      </trkpt>
      <trkpt lat="50.32637" lon="5.12754">
        <ele>230.44666589425</ele>
        <time>2017-04-29T12:59:41Z</time>
      </trkpt>
      <trkpt lat="50.32669" lon="5.1279">
        <ele>232.6063564284</ele>
        <time>2017-04-29T12:59:46Z</time>
      </trkpt>
      <trkpt lat="50.3269" lon="5.1282">
        <ele>233.36628335014</ele>
        <time>2017-04-29T12:59:50Z</time>
      </trkpt>
      <trkpt lat="50.32707" lon="5.12852">
        <ele>234.31551912404</ele>
        <time>2017-04-29T12:59:54Z</time>
      </trkpt>
      <trkpt lat="50.32726" lon="5.12885">
        <ele>235.09023833301</ele>
        <time>2017-04-29T12:59:58Z</time>
      </trkpt>
      <trkpt lat="50.32748" lon="5.12925">
        <ele>231.19301694095</ele>
        <time>2017-04-29T13:00:03Z</time>
      </trkpt>
      <trkpt lat="50.32759" lon="5.1295">
        <ele>229.82130591633</ele>
        <time>2017-04-29T13:00:07Z</time>
      </trkpt>
      <trkpt lat="50.32782" lon="5.12988">
        <ele>232.11734499389</ele>
        <time>2017-04-29T13:00:11Z</time>
      </trkpt>
      <trkpt lat="50.32807" lon="5.13027">
        <ele>233.42615540024</ele>
        <time>2017-04-29T13:00:16Z</time>
      </trkpt>
      <trkpt lat="50.32821" lon="5.13052">
        <ele>231.98910969252</ele>
        <time>2017-04-29T13:00:20Z</time>
      </trkpt>
      <trkpt lat="50.32838" lon="5.1308">
        <ele>233.24513316222</ele>
        <time>2017-04-29T13:00:24Z</time>
      </trkpt>
      <trkpt lat="50.32858" lon="5.13115">
        <ele>239.03552097097</ele>
        <time>2017-04-29T13:00:29Z</time>
      </trkpt>
      <trkpt lat="50.32869" lon="5.13141">
        <ele>240.11446687056</ele>
        <time>2017-04-29T13:00:34Z</time>
      </trkpt>
      <trkpt lat="50.32886" lon="5.13173">
        <ele>239.02071917615</ele>
        <time>2017-04-29T13:00:38Z</time>
      </trkpt>
      <trkpt lat="50.32904" lon="5.13217">
        <ele>237.97919889623</ele>
        <time>2017-04-29T13:00:43Z</time>
      </trkpt>
      <trkpt lat="50.32924" lon="5.13265">
        <ele>236.64522422421</ele>
        <time>2017-04-29T13:00:48Z</time>
      </trkpt>
      <trkpt lat="50.32933" lon="5.13298">
        <ele>234.72336414991</ele>
        <time>2017-04-29T13:00:52Z</time>
      </trkpt>
      <trkpt lat="50.32941" lon="5.13323">
        <ele>231.16709062898</ele>
        <time>2017-04-29T13:00:56Z</time>
      </trkpt>
      <trkpt lat="50.32951" lon="5.13369">
        <ele>230.10022496261</ele>
        <time>2017-04-29T13:01:01Z</time>
      </trkpt>
      <trkpt lat="50.32959" lon="5.13407">
        <ele>228.91163950471</ele>
        <time>2017-04-29T13:01:05Z</time>
      </trkpt>
      <trkpt lat="50.32965" lon="5.13459">
        <ele>226.46651214128</ele>
        <time>2017-04-29T13:01:10Z</time>
      </trkpt>
      <trkpt lat="50.32968" lon="5.13498">
        <ele>224.9352897999</ele>
        <time>2017-04-29T13:01:14Z</time>
      </trkpt>
      <trkpt lat="50.32974" lon="5.13539">
        <ele>225.95882064699</ele>
        <time>2017-04-29T13:01:18Z</time>
      </trkpt>
      <trkpt lat="50.32988" lon="5.13589">
        <ele>226.55089466254</ele>
        <time>2017-04-29T13:01:23Z</time>
      </trkpt>
      <trkpt lat="50.33009" lon="5.13635">
        <ele>227.53966152124</ele>
        <time>2017-04-29T13:01:28Z</time>
      </trkpt>
      <trkpt lat="50.33028" lon="5.13671">
        <ele>230.12071436809</ele>
        <time>2017-04-29T13:01:32Z</time>
      </trkpt>
      <trkpt lat="50.3305" lon="5.13718">
        <ele>232.81898030712</ele>
        <time>2017-04-29T13:01:37Z</time>
      </trkpt>
      <trkpt lat="50.33065" lon="5.13755">
        <ele>235.32385510803</ele>
        <time>2017-04-29T13:01:41Z</time>
      </trkpt>
      <trkpt lat="50.33082" lon="5.13792">
        <ele>238.21301115082</ele>
        <time>2017-04-29T13:01:45Z</time>
      </trkpt>
      <trkpt lat="50.33103" lon="5.13827">
        <ele>244.09800061735</ele>
        <time>2017-04-29T13:01:50Z</time>
      </trkpt>
      <trkpt lat="50.33122" lon="5.13863">
        <ele>241.89951323919</ele>
        <time>2017-04-29T13:01:55Z</time>
      </trkpt>
      <trkpt lat="50.3314" lon="5.13893">
        <ele>239.94710724484</ele>
        <time>2017-04-29T13:01:59Z</time>
      </trkpt>
      <trkpt lat="50.33164" lon="5.13927">
        <ele>237.52646203879</ele>
        <time>2017-04-29T13:02:04Z</time>
      </trkpt>
      <trkpt lat="50.33189" lon="5.1395">
        <ele>232.74916173909</ele>
        <time>2017-04-29T13:02:08Z</time>
      </trkpt>
      <trkpt lat="50.3321" lon="5.13982">
        <ele>230.72235666304</ele>
        <time>2017-04-29T13:02:13Z</time>
      </trkpt>
      <trkpt lat="50.33231" lon="5.14009">
        <ele>234.64565859427</ele>
        <time>2017-04-29T13:02:17Z</time>
      </trkpt>
      <trkpt lat="50.33258" lon="5.14037">
        <ele>238.13873970579</ele>
        <time>2017-04-29T13:02:21Z</time>
      </trkpt>
      <trkpt lat="50.33285" lon="5.14073">
        <ele>238.92364243776</ele>
        <time>2017-04-29T13:02:25Z</time>
      </trkpt>
      <trkpt lat="50.33315" lon="5.14117">
        <ele>237.27413811708</ele>
        <time>2017-04-29T13:02:30Z</time>
      </trkpt>
      <trkpt lat="50.33335" lon="5.14146">
        <ele>235.67033329135</ele>
        <time>2017-04-29T13:02:34Z</time>
      </trkpt>
      <trkpt lat="50.33351" lon="5.14178">
        <ele>234.7436110996</ele>
        <time>2017-04-29T13:02:38Z</time>
      </trkpt>
      <trkpt lat="50.33372" lon="5.14213">
        <ele>232.62809190871</ele>
        <time>2017-04-29T13:02:43Z</time>
      </trkpt>
      <trkpt lat="50.33399" lon="5.1424">
        <ele>231.05794148601</ele>
        <time>2017-04-29T13:02:48Z</time>
      </trkpt>
      <trkpt lat="50.3342" lon="5.14261">
        <ele>230.83285365231</ele>
        <time>2017-04-29T13:02:52Z</time>
      </trkpt>
      <trkpt lat="50.33442" lon="5.14284">
        <ele>230.19781757067</ele>
        <time>2017-04-29T13:02:56Z</time>
      </trkpt>
      <trkpt lat="50.33471" lon="5.14325">
        <ele>230.3036132841</ele>
        <time>2017-04-29T13:03:01Z</time>
      </trkpt>
      <trkpt lat="50.33493" lon="5.14357">
        <ele>231.35720292104</ele>
        <time>2017-04-29T13:03:05Z</time>
      </trkpt>
      <trkpt lat="50.33515" lon="5.14393">
        <ele>231.95377036049</ele>
        <time>2017-04-29T13:03:10Z</time>
      </trkpt>
      <trkpt lat="50.33532" lon="5.14429">
        <ele>234.99385090167</ele>
        <time>2017-04-29T13:03:14Z</time>
      </trkpt>
      <trkpt lat="50.33549" lon="5.14469">
        <ele>237.33169677625</ele>
        <time>2017-04-29T13:03:18Z</time>
      </trkpt>
      <trkpt lat="50.33568" lon="5.14514">
        <ele>239.76584173524</ele>
        <time>2017-04-29T13:03:23Z</time>
      </trkpt>
      <trkpt lat="50.33583" lon="5.14552">
        <ele>240.37560793088</ele>
        <time>2017-04-29T13:03:27Z</time>
      </trkpt>
      <trkpt lat="50.33599" lon="5.14601">
        <ele>237.54166992043</ele>
        <time>2017-04-29T13:03:32Z</time>
      </trkpt>
      <trkpt lat="50.33612" lon="5.14636">
        <ele>234.17731732384</ele>
        <time>2017-04-29T13:03:36Z</time>
      </trkpt>
      <trkpt lat="50.33628" lon="5.14676">
        <ele>231.71755148689</ele>
        <time>2017-04-29T13:03:41Z</time>
      </trkpt>
      <trkpt lat="50.3365" lon="5.14717">
        <ele>232.82093221011</ele>
        <time>2017-04-29T13:03:46Z</time>
      </trkpt>
      <trkpt lat="50.3367" lon="5.14755">
        <ele>233.82788291132</ele>
        <time>2017-04-29T13:03:50Z</time>
      </trkpt>
      <trkpt lat="50.33689" lon="5.14792">
        <ele>235.92018591504</ele>
        <time>2017-04-29T13:03:55Z</time>
      </trkpt>
      <trkpt lat="50.33705" lon="5.14821">
        <ele>236.09860720552</ele>
        <time>2017-04-29T13:03:59Z</time>
      </trkpt>
      <trkpt lat="50.33721" lon="5.14849">
        <ele>235.06438769098</ele>
        <time>2017-04-29T13:04:03Z</time>
      </trkpt>
      <trkpt lat="50.33737" lon="5.14876">
        <ele>235.99520126628</ele>
        <time>2017-04-29T13:04:07Z</time>
      </trkpt>
      <trkpt lat="50.33757" lon="5.14904">
        <ele>235.77869156972</ele>
        <time>2017-04-29T13:04:11Z</time>
      </trkpt>
      <trkpt lat="50.33771" lon="5.14925">
        <ele>236.1683433859</ele>
        <time>2017-04-29T13:04:15Z</time>
      </trkpt>
      <trkpt lat="50.33792" lon="5.14947">
        <ele>236.24742964193</ele>
        <time>2017-04-29T13:04:19Z</time>
      </trkpt>
      <trkpt lat="50.33809" lon="5.14963">
        <ele>237.48377228499</ele>
        <time>2017-04-29T13:04:23Z</time>
      </trkpt>
      <trkpt lat="50.33829" lon="5.14983">
        <ele>237.36546682823</ele>
        <time>2017-04-29T13:04:27Z</time>
      </trkpt>
      <trkpt lat="50.3385" lon="5.15011">
        <ele>237.3292134315</ele>
        <time>2017-04-29T13:04:31Z</time>
      </trkpt>
      <trkpt lat="50.33871" lon="5.15034">
        <ele>238.71337611765</ele>
        <time>2017-04-29T13:04:35Z</time>
      </trkpt>
      <trkpt lat="50.33888" lon="5.1506">
        <ele>239.52674370113</ele>
        <time>2017-04-29T13:04:40Z</time>
      </trkpt>
      <trkpt lat="50.33893" lon="5.15071">
        <ele>239.70333932893</ele>
        <time>2017-04-29T13:04:49Z</time>
      </trkpt>
      <trkpt lat="50.33901" lon="5.1508">
        <ele>240.91992039281</ele>
        <time>2017-04-29T13:04:54Z</time>
      </trkpt>
      <trkpt lat="50.33915" lon="5.1511">
        <ele>244.54046550989</ele>
        <time>2017-04-29T13:04:59Z</time>
      </trkpt>
      <trkpt lat="50.33927" lon="5.1514">
        <ele>246.30087939151</ele>
        <time>2017-04-29T13:05:03Z</time>
      </trkpt>
      <trkpt lat="50.33941" lon="5.15178">
        <ele>247.98647681144</ele>
        <time>2017-04-29T13:05:08Z</time>
      </trkpt>
      <trkpt lat="50.33951" lon="5.15216">
        <ele>248.82498703098</ele>
        <time>2017-04-29T13:05:12Z</time>
      </trkpt>
      <trkpt lat="50.3396" lon="5.15256">
        <ele>248.04053107894</ele>
        <time>2017-04-29T13:05:16Z</time>
      </trkpt>
      <trkpt lat="50.33969" lon="5.15296">
        <ele>248.29559101297</ele>
        <time>2017-04-29T13:05:20Z</time>
      </trkpt>
      <trkpt lat="50.33981" lon="5.15345">
        <ele>249.46664344739</ele>
        <time>2017-04-29T13:05:25Z</time>
      </trkpt>
      <trkpt lat="50.33989" lon="5.15382">
        <ele>249.91679071786</ele>
        <time>2017-04-29T13:05:29Z</time>
      </trkpt>
      <trkpt lat="50.34" lon="5.1543">
        <ele>250.04982274884</ele>
        <time>2017-04-29T13:05:34Z</time>
      </trkpt>
      <trkpt lat="50.34009" lon="5.15468">
        <ele>249.71034921546</ele>
        <time>2017-04-29T13:05:38Z</time>
      </trkpt>
      <trkpt lat="50.3402" lon="5.15514">
        <ele>249.23757193254</ele>
        <time>2017-04-29T13:05:43Z</time>
      </trkpt>
      <trkpt lat="50.34029" lon="5.15548">
        <ele>248.78248979618</ele>
        <time>2017-04-29T13:05:47Z</time>
      </trkpt>
      <trkpt lat="50.34043" lon="5.15579">
        <ele>248.64849735006</ele>
        <time>2017-04-29T13:05:52Z</time>
      </trkpt>
      <trkpt lat="50.34055" lon="5.15598">
        <ele>248.03667830047</ele>
        <time>2017-04-29T13:05:56Z</time>
      </trkpt>
      <trkpt lat="50.34064" lon="5.15618">
        <ele>246.96286676285</ele>
        <time>2017-04-29T13:06:00Z</time>
      </trkpt>
      <trkpt lat="50.34076" lon="5.15641">
        <ele>246.52820552877</ele>
        <time>2017-04-29T13:06:05Z</time>
      </trkpt>
      <trkpt lat="50.34068" lon="5.15658">
        <ele>246.49843769695</ele>
        <time>2017-04-29T13:06:10Z</time>
      </trkpt>
      <trkpt lat="50.34077" lon="5.15679">
        <ele>246.25079072396</ele>
        <time>2017-04-29T13:06:14Z</time>
      </trkpt>
      <trkpt lat="50.34093" lon="5.15711">
        <ele>246.49385338187</ele>
        <time>2017-04-29T13:06:18Z</time>
      </trkpt>
      <trkpt lat="50.34108" lon="5.15741">
        <ele>246.47344599298</ele>
        <time>2017-04-29T13:06:22Z</time>
      </trkpt>
      <trkpt lat="50.34131" lon="5.15776">
        <ele>247.88673082229</ele>
        <time>2017-04-29T13:06:27Z</time>
      </trkpt>
      <trkpt lat="50.34152" lon="5.15803">
        <ele>250.10636259133</ele>
        <time>2017-04-29T13:06:31Z</time>
      </trkpt>
      <trkpt lat="50.34172" lon="5.1583">
        <ele>250.98316115755</ele>
        <time>2017-04-29T13:06:35Z</time>
      </trkpt>
      <trkpt lat="50.34196" lon="5.15859">
        <ele>249.69058052533</ele>
        <time>2017-04-29T13:06:40Z</time>
      </trkpt>
      <trkpt lat="50.34215" lon="5.15882">
        <ele>249.77677962982</ele>
        <time>2017-04-29T13:06:44Z</time>
      </trkpt>
      <trkpt lat="50.34228" lon="5.159">
        <ele>250.10728118472</ele>
        <time>2017-04-29T13:06:48Z</time>
      </trkpt>
      <trkpt lat="50.34235" lon="5.15915">
        <ele>250.13758936965</ele>
        <time>2017-04-29T13:06:52Z</time>
      </trkpt>
      <trkpt lat="50.34242" lon="5.15913">
        <ele>249.24466292912</ele>
        <time>2017-04-29T13:07:00Z</time>
      </trkpt>
      <trkpt lat="50.34259" lon="5.15914">
        <ele>248.28358027991</ele>
        <time>2017-04-29T13:07:04Z</time>
      </trkpt>
      <trkpt lat="50.34286" lon="5.15934">
        <ele>248.49217195311</ele>
        <time>2017-04-29T13:07:09Z</time>
      </trkpt>
      <trkpt lat="50.34309" lon="5.15958">
        <ele>247.55187159345</ele>
        <time>2017-04-29T13:07:13Z</time>
      </trkpt>
      <trkpt lat="50.34331" lon="5.15972">
        <ele>246.52674784328</ele>
        <time>2017-04-29T13:07:17Z</time>
      </trkpt>
      <trkpt lat="50.34358" lon="5.15958">
        <ele>245.61345765534</ele>
        <time>2017-04-29T13:07:21Z</time>
      </trkpt>
      <trkpt lat="50.34379" lon="5.15951">
        <ele>248.28544528905</ele>
        <time>2017-04-29T13:07:25Z</time>
      </trkpt>
      <trkpt lat="50.34397" lon="5.15941">
        <ele>253.74469692754</ele>
        <time>2017-04-29T13:07:29Z</time>
      </trkpt>
      <trkpt lat="50.34424" lon="5.15934">
        <ele>255.61207348328</ele>
        <time>2017-04-29T13:07:34Z</time>
      </trkpt>
      <trkpt lat="50.34451" lon="5.15923">
        <ele>254.83002536593</ele>
        <time>2017-04-29T13:07:39Z</time>
      </trkpt>
      <trkpt lat="50.34472" lon="5.15912">
        <ele>255.66443925502</ele>
        <time>2017-04-29T13:07:43Z</time>
      </trkpt>
      <trkpt lat="50.3449" lon="5.159">
        <ele>257.21168646023</ele>
        <time>2017-04-29T13:07:47Z</time>
      </trkpt>
      <trkpt lat="50.34508" lon="5.15888">
        <ele>260.23001559315</ele>
        <time>2017-04-29T13:07:51Z</time>
      </trkpt>
      <trkpt lat="50.34531" lon="5.15868">
        <ele>263.59040500093</ele>
        <time>2017-04-29T13:07:56Z</time>
      </trkpt>
      <trkpt lat="50.34557" lon="5.15853">
        <ele>264.6825719238</ele>
        <time>2017-04-29T13:08:01Z</time>
      </trkpt>
      <trkpt lat="50.34577" lon="5.15849">
        <ele>266.78647966442</ele>
        <time>2017-04-29T13:08:05Z</time>
      </trkpt>
      <trkpt lat="50.34599" lon="5.15855">
        <ele>267.43314680531</ele>
        <time>2017-04-29T13:08:09Z</time>
      </trkpt>
      <trkpt lat="50.34626" lon="5.15867">
        <ele>268.42109832057</ele>
        <time>2017-04-29T13:08:14Z</time>
      </trkpt>
      <trkpt lat="50.34649" lon="5.15879">
        <ele>268.19668820486</ele>
        <time>2017-04-29T13:08:18Z</time>
      </trkpt>
      <trkpt lat="50.34677" lon="5.15894">
        <ele>269.39535469925</ele>
        <time>2017-04-29T13:08:23Z</time>
      </trkpt>
      <trkpt lat="50.347" lon="5.15907">
        <ele>270.29013747451</ele>
        <time>2017-04-29T13:08:27Z</time>
      </trkpt>
      <trkpt lat="50.34723" lon="5.1592">
        <ele>268.43705246615</ele>
        <time>2017-04-29T13:08:31Z</time>
      </trkpt>
      <trkpt lat="50.34748" lon="5.15933">
        <ele>267.05079045731</ele>
        <time>2017-04-29T13:08:35Z</time>
      </trkpt>
      <trkpt lat="50.34768" lon="5.15944">
        <ele>266.65512215443</ele>
        <time>2017-04-29T13:08:39Z</time>
      </trkpt>
      <trkpt lat="50.34791" lon="5.15955">
        <ele>269.91190332866</ele>
        <time>2017-04-29T13:08:43Z</time>
      </trkpt>
      <trkpt lat="50.34819" lon="5.15962">
        <ele>270.35978072493</ele>
        <time>2017-04-29T13:08:48Z</time>
      </trkpt>
      <trkpt lat="50.34844" lon="5.15968">
        <ele>272.88720184232</ele>
        <time>2017-04-29T13:08:52Z</time>
      </trkpt>
      <trkpt lat="50.34875" lon="5.15976">
        <ele>273.79645297918</ele>
        <time>2017-04-29T13:08:57Z</time>
      </trkpt>
      <trkpt lat="50.349" lon="5.15982">
        <ele>273.62482334954</ele>
        <time>2017-04-29T13:09:01Z</time>
      </trkpt>
      <trkpt lat="50.34923" lon="5.15988">
        <ele>273.71848123273</ele>
        <time>2017-04-29T13:09:05Z</time>
      </trkpt>
      <trkpt lat="50.34945" lon="5.15993">
        <ele>275.15839865708</ele>
        <time>2017-04-29T13:09:09Z</time>
      </trkpt>
      <trkpt lat="50.34968" lon="5.15999">
        <ele>276.01566130315</ele>
        <time>2017-04-29T13:09:13Z</time>
      </trkpt>
      <trkpt lat="50.34995" lon="5.16008">
        <ele>278.31623163612</ele>
        <time>2017-04-29T13:09:18Z</time>
      </trkpt>
      <trkpt lat="50.35015" lon="5.16014">
        <ele>278.50750447332</ele>
        <time>2017-04-29T13:09:22Z</time>
      </trkpt>
      <trkpt lat="50.3504" lon="5.16017">
        <ele>279.31429606843</ele>
        <time>2017-04-29T13:09:27Z</time>
      </trkpt>
      <trkpt lat="50.35061" lon="5.16021">
        <ele>279.31211136324</ele>
        <time>2017-04-29T13:09:31Z</time>
      </trkpt>
      <trkpt lat="50.35087" lon="5.16027">
        <ele>279.31692165037</ele>
        <time>2017-04-29T13:09:36Z</time>
      </trkpt>
      <trkpt lat="50.35107" lon="5.16033">
        <ele>281.06197209012</ele>
        <time>2017-04-29T13:09:40Z</time>
      </trkpt>
      <trkpt lat="50.35128" lon="5.16041">
        <ele>284.35063836619</ele>
        <time>2017-04-29T13:09:44Z</time>
      </trkpt>
      <trkpt lat="50.35153" lon="5.16047">
        <ele>287.35866066618</ele>
        <time>2017-04-29T13:09:49Z</time>
      </trkpt>
      <trkpt lat="50.35175" lon="5.16052">
        <ele>289.22289495308</ele>
        <time>2017-04-29T13:09:53Z</time>
      </trkpt>
      <trkpt lat="50.35202" lon="5.16059">
        <ele>288.47393330581</ele>
        <time>2017-04-29T13:09:58Z</time>
      </trkpt>
      <trkpt lat="50.35223" lon="5.16064">
        <ele>290.40142653834</ele>
        <time>2017-04-29T13:10:02Z</time>
      </trkpt>
      <trkpt lat="50.3525" lon="5.1607">
        <ele>292.94785919607</ele>
        <time>2017-04-29T13:10:07Z</time>
      </trkpt>
      <trkpt lat="50.35271" lon="5.16076">
        <ele>294.30292593779</ele>
        <time>2017-04-29T13:10:11Z</time>
      </trkpt>
      <trkpt lat="50.35293" lon="5.16081">
        <ele>295.26891729258</ele>
        <time>2017-04-29T13:10:15Z</time>
      </trkpt>
      <trkpt lat="50.35317" lon="5.16087">
        <ele>296.54671206279</ele>
        <time>2017-04-29T13:10:20Z</time>
      </trkpt>
      <trkpt lat="50.3534" lon="5.16093">
        <ele>296.85381630113</ele>
        <time>2017-04-29T13:10:24Z</time>
      </trkpt>
      <trkpt lat="50.35365" lon="5.16102">
        <ele>296.3738370813</ele>
        <time>2017-04-29T13:10:29Z</time>
      </trkpt>
      <trkpt lat="50.35388" lon="5.16111">
        <ele>296.60097460395</ele>
        <time>2017-04-29T13:10:34Z</time>
      </trkpt>
      <trkpt lat="50.35407" lon="5.16117">
        <ele>297.14202886146</ele>
        <time>2017-04-29T13:10:38Z</time>
      </trkpt>
      <trkpt lat="50.35421" lon="5.16122">
        <ele>298.2014716121</ele>
        <time>2017-04-29T13:10:42Z</time>
      </trkpt>
      <trkpt lat="50.35439" lon="5.16124">
        <ele>300.97713650644</ele>
        <time>2017-04-29T13:10:46Z</time>
      </trkpt>
      <trkpt lat="50.3547" lon="5.16127">
        <ele>303.21068123263</ele>
        <time>2017-04-29T13:10:51Z</time>
      </trkpt>
      <trkpt lat="50.35498" lon="5.16129">
        <ele>302.34242199435</ele>
        <time>2017-04-29T13:10:55Z</time>
      </trkpt>
      <trkpt lat="50.3553" lon="5.16131">
        <ele>300.33173917425</ele>
        <time>2017-04-29T13:10:59Z</time>
      </trkpt>
      <trkpt lat="50.35564" lon="5.16133">
        <ele>298.34723595704</ele>
        <time>2017-04-29T13:11:03Z</time>
      </trkpt>
      <trkpt lat="50.35596" lon="5.16132">
        <ele>296.88362452676</ele>
        <time>2017-04-29T13:11:07Z</time>
      </trkpt>
      <trkpt lat="50.35624" lon="5.1612">
        <ele>295.83825877416</ele>
        <time>2017-04-29T13:11:11Z</time>
      </trkpt>
      <trkpt lat="50.35635" lon="5.16058">
        <ele>296.10720536855</ele>
        <time>2017-04-29T13:11:16Z</time>
      </trkpt>
      <trkpt lat="50.35628" lon="5.16005">
        <ele>296.8438445314</ele>
        <time>2017-04-29T13:11:20Z</time>
      </trkpt>
      <trkpt lat="50.35617" lon="5.15932">
        <ele>297.16853896321</ele>
        <time>2017-04-29T13:11:25Z</time>
      </trkpt>
      <trkpt lat="50.35608" lon="5.15875">
        <ele>295.68338233395</ele>
        <time>2017-04-29T13:11:29Z</time>
      </trkpt>
      <trkpt lat="50.356" lon="5.1583">
        <ele>292.66729379522</ele>
        <time>2017-04-29T13:11:33Z</time>
      </trkpt>
      <trkpt lat="50.35594" lon="5.15786">
        <ele>289.86832783894</ele>
        <time>2017-04-29T13:11:37Z</time>
      </trkpt>
      <trkpt lat="50.35599" lon="5.1573">
        <ele>286.99033261159</ele>
        <time>2017-04-29T13:11:42Z</time>
      </trkpt>
      <trkpt lat="50.35604" lon="5.15684">
        <ele>284.84164614429</ele>
        <time>2017-04-29T13:11:46Z</time>
      </trkpt>
      <trkpt lat="50.35621" lon="5.15639">
        <ele>282.94814389116</ele>
        <time>2017-04-29T13:11:51Z</time>
      </trkpt>
      <trkpt lat="50.3564" lon="5.15605">
        <ele>281.30885403015</ele>
        <time>2017-04-29T13:11:55Z</time>
      </trkpt>
      <trkpt lat="50.35665" lon="5.15563">
        <ele>278.98768772496</ele>
        <time>2017-04-29T13:12:00Z</time>
      </trkpt>
      <trkpt lat="50.35691" lon="5.15528">
        <ele>277.64994007755</ele>
        <time>2017-04-29T13:12:05Z</time>
      </trkpt>
      <trkpt lat="50.35715" lon="5.1552">
        <ele>281.5549008712</ele>
        <time>2017-04-29T13:12:09Z</time>
      </trkpt>
      <trkpt lat="50.35743" lon="5.1554">
        <ele>279.942521376</ele>
        <time>2017-04-29T13:12:13Z</time>
      </trkpt>
      <trkpt lat="50.35778" lon="5.15569">
        <ele>276.47389009787</ele>
        <time>2017-04-29T13:12:18Z</time>
      </trkpt>
      <trkpt lat="50.3581" lon="5.1557">
        <ele>272.46498748686</ele>
        <time>2017-04-29T13:12:23Z</time>
      </trkpt>
      <trkpt lat="50.35834" lon="5.15554">
        <ele>272.05920483696</ele>
        <time>2017-04-29T13:12:27Z</time>
      </trkpt>
      <trkpt lat="50.35866" lon="5.1554">
        <ele>274.87907646806</ele>
        <time>2017-04-29T13:12:32Z</time>
      </trkpt>
      <trkpt lat="50.35896" lon="5.15535">
        <ele>278.06088290086</ele>
        <time>2017-04-29T13:12:37Z</time>
      </trkpt>
      <trkpt lat="50.35919" lon="5.15534">
        <ele>283.52889277999</ele>
        <time>2017-04-29T13:12:41Z</time>
      </trkpt>
      <trkpt lat="50.35947" lon="5.15524">
        <ele>285.06587002082</ele>
        <time>2017-04-29T13:12:46Z</time>
      </trkpt>
      <trkpt lat="50.35973" lon="5.15513">
        <ele>279.10352975444</ele>
        <time>2017-04-29T13:12:50Z</time>
      </trkpt>
      <trkpt lat="50.35998" lon="5.15498">
        <ele>275.91133199966</ele>
        <time>2017-04-29T13:12:54Z</time>
      </trkpt>
      <trkpt lat="50.36029" lon="5.15482">
        <ele>272.91368379988</ele>
        <time>2017-04-29T13:12:59Z</time>
      </trkpt>
      <trkpt lat="50.36052" lon="5.15464">
        <ele>270.81904264171</ele>
        <time>2017-04-29T13:13:03Z</time>
      </trkpt>
      <trkpt lat="50.36075" lon="5.15443">
        <ele>275.24810970819</ele>
        <time>2017-04-29T13:13:07Z</time>
      </trkpt>
      <trkpt lat="50.36104" lon="5.15423">
        <ele>277.24637406225</ele>
        <time>2017-04-29T13:13:11Z</time>
      </trkpt>
      <trkpt lat="50.36129" lon="5.15394">
        <ele>275.9192753357</ele>
        <time>2017-04-29T13:13:15Z</time>
      </trkpt>
      <trkpt lat="50.36157" lon="5.15368">
        <ele>278.54808243258</ele>
        <time>2017-04-29T13:13:19Z</time>
      </trkpt>
      <trkpt lat="50.36181" lon="5.15342">
        <ele>282.83838425297</ele>
        <time>2017-04-29T13:13:23Z</time>
      </trkpt>
      <trkpt lat="50.36202" lon="5.15321">
        <ele>288.96795757929</ele>
        <time>2017-04-29T13:13:27Z</time>
      </trkpt>
      <trkpt lat="50.36225" lon="5.15304">
        <ele>291.21333579531</ele>
        <time>2017-04-29T13:13:31Z</time>
      </trkpt>
      <trkpt lat="50.36251" lon="5.15286">
        <ele>290.13795823713</ele>
        <time>2017-04-29T13:13:36Z</time>
      </trkpt>
      <trkpt lat="50.36272" lon="5.1527">
        <ele>289.64800930017</ele>
        <time>2017-04-29T13:13:40Z</time>
      </trkpt>
      <trkpt lat="50.36297" lon="5.1525">
        <ele>290.4475553231</ele>
        <time>2017-04-29T13:13:45Z</time>
      </trkpt>
      <trkpt lat="50.36316" lon="5.15234">
        <ele>290.74082236112</ele>
        <time>2017-04-29T13:13:49Z</time>
      </trkpt>
      <trkpt lat="50.36336" lon="5.15218">
        <ele>290.99247948365</ele>
        <time>2017-04-29T13:13:53Z</time>
      </trkpt>
      <trkpt lat="50.36356" lon="5.15201">
        <ele>291.22836015202</ele>
        <time>2017-04-29T13:13:57Z</time>
      </trkpt>
      <trkpt lat="50.36376" lon="5.15185">
        <ele>291.50745625735</ele>
        <time>2017-04-29T13:14:01Z</time>
      </trkpt>
      <trkpt lat="50.36403" lon="5.15166">
        <ele>291.0279746147</ele>
        <time>2017-04-29T13:14:06Z</time>
      </trkpt>
      <trkpt lat="50.36424" lon="5.15149">
        <ele>290.91818489659</ele>
        <time>2017-04-29T13:14:10Z</time>
      </trkpt>
      <trkpt lat="50.36447" lon="5.15133">
        <ele>290.49882312723</ele>
        <time>2017-04-29T13:14:14Z</time>
      </trkpt>
      <trkpt lat="50.36478" lon="5.15116">
        <ele>288.18783144902</ele>
        <time>2017-04-29T13:14:19Z</time>
      </trkpt>
      <trkpt lat="50.36505" lon="5.15104">
        <ele>285.77525012016</ele>
        <time>2017-04-29T13:14:23Z</time>
      </trkpt>
      <trkpt lat="50.36533" lon="5.15091">
        <ele>284.06085445429</ele>
        <time>2017-04-29T13:14:27Z</time>
      </trkpt>
      <trkpt lat="50.36561" lon="5.15076">
        <ele>283.90870343221</ele>
        <time>2017-04-29T13:14:31Z</time>
      </trkpt>
      <trkpt lat="50.36588" lon="5.15058">
        <ele>283.52196880081</ele>
        <time>2017-04-29T13:14:35Z</time>
      </trkpt>
      <trkpt lat="50.36614" lon="5.15035">
        <ele>282.71754834522</ele>
        <time>2017-04-29T13:14:39Z</time>
      </trkpt>
      <trkpt lat="50.36641" lon="5.15011">
        <ele>283.08959831808</ele>
        <time>2017-04-29T13:14:43Z</time>
      </trkpt>
      <trkpt lat="50.36667" lon="5.14988">
        <ele>283.74786900982</ele>
        <time>2017-04-29T13:14:47Z</time>
      </trkpt>
      <trkpt lat="50.36693" lon="5.14966">
        <ele>284.16265587317</ele>
        <time>2017-04-29T13:14:51Z</time>
      </trkpt>
      <trkpt lat="50.36719" lon="5.14944">
        <ele>284.48899979595</ele>
        <time>2017-04-29T13:14:55Z</time>
      </trkpt>
      <trkpt lat="50.36745" lon="5.14923">
        <ele>284.57661865382</ele>
        <time>2017-04-29T13:14:59Z</time>
      </trkpt>
      <trkpt lat="50.36775" lon="5.14896">
        <ele>283.96712328636</ele>
        <time>2017-04-29T13:15:04Z</time>
      </trkpt>
      <trkpt lat="50.36798" lon="5.14878">
        <ele>284.60434773751</ele>
        <time>2017-04-29T13:15:08Z</time>
      </trkpt>
      <trkpt lat="50.36828" lon="5.1486">
        <ele>286.0160478922</ele>
        <time>2017-04-29T13:15:13Z</time>
      </trkpt>
      <trkpt lat="50.36858" lon="5.14849">
        <ele>287.03567144311</ele>
        <time>2017-04-29T13:15:18Z</time>
      </trkpt>
      <trkpt lat="50.36888" lon="5.14849">
        <ele>288.99729796878</ele>
        <time>2017-04-29T13:15:23Z</time>
      </trkpt>
      <trkpt lat="50.36911" lon="5.14854">
        <ele>290.40135376092</ele>
        <time>2017-04-29T13:15:27Z</time>
      </trkpt>
      <trkpt lat="50.36942" lon="5.14863">
        <ele>291.07170956573</ele>
        <time>2017-04-29T13:15:32Z</time>
      </trkpt>
      <trkpt lat="50.36968" lon="5.1487">
        <ele>292.36841633344</ele>
        <time>2017-04-29T13:15:36Z</time>
      </trkpt>
      <trkpt lat="50.37" lon="5.1488">
        <ele>292.94768901906</ele>
        <time>2017-04-29T13:15:41Z</time>
      </trkpt>
      <trkpt lat="50.37024" lon="5.14887">
        <ele>293.37580596574</ele>
        <time>2017-04-29T13:15:45Z</time>
      </trkpt>
      <trkpt lat="50.37047" lon="5.149">
        <ele>293.16246991944</ele>
        <time>2017-04-29T13:15:49Z</time>
      </trkpt>
      <trkpt lat="50.3707" lon="5.14919">
        <ele>292.43328870304</ele>
        <time>2017-04-29T13:15:53Z</time>
      </trkpt>
      <trkpt lat="50.37096" lon="5.14949">
        <ele>291.76747003298</ele>
        <time>2017-04-29T13:15:58Z</time>
      </trkpt>
      <trkpt lat="50.37116" lon="5.14976">
        <ele>292.62255324392</ele>
        <time>2017-04-29T13:16:02Z</time>
      </trkpt>
      <trkpt lat="50.3714" lon="5.15008">
        <ele>292.90724591023</ele>
        <time>2017-04-29T13:16:07Z</time>
      </trkpt>
      <trkpt lat="50.37159" lon="5.15035">
        <ele>292.98125741717</ele>
        <time>2017-04-29T13:16:11Z</time>
      </trkpt>
      <trkpt lat="50.37179" lon="5.1506">
        <ele>293.07277309549</ele>
        <time>2017-04-29T13:16:15Z</time>
      </trkpt>
      <trkpt lat="50.37201" lon="5.15061">
        <ele>293.79669954329</ele>
        <time>2017-04-29T13:16:19Z</time>
      </trkpt>
      <trkpt lat="50.37221" lon="5.15024">
        <ele>293.82350689278</ele>
        <time>2017-04-29T13:16:24Z</time>
      </trkpt>
      <trkpt lat="50.37235" lon="5.1499">
        <ele>293.34672614857</ele>
        <time>2017-04-29T13:16:28Z</time>
      </trkpt>
      <trkpt lat="50.37249" lon="5.14956">
        <ele>291.45890570003</ele>
        <time>2017-04-29T13:16:32Z</time>
      </trkpt>
      <trkpt lat="50.3726" lon="5.14934">
        <ele>290.71807888021</ele>
        <time>2017-04-29T13:16:36Z</time>
      </trkpt>
      <trkpt lat="50.37265" lon="5.14927">
        <ele>291.72397207678</ele>
        <time>2017-04-29T13:17:52Z</time>
      </trkpt>
      <trkpt lat="50.37276" lon="5.14902">
        <ele>293.75485149601</ele>
        <time>2017-04-29T13:17:57Z</time>
      </trkpt>
      <trkpt lat="50.37289" lon="5.14876">
        <ele>294.35568609915</ele>
        <time>2017-04-29T13:18:01Z</time>
      </trkpt>
      <trkpt lat="50.37311" lon="5.14846">
        <ele>290.40259898875</ele>
        <time>2017-04-29T13:18:06Z</time>
      </trkpt>
      <trkpt lat="50.37328" lon="5.14825">
        <ele>287.37016962136</ele>
        <time>2017-04-29T13:18:10Z</time>
      </trkpt>
      <trkpt lat="50.37351" lon="5.148">
        <ele>282.93620971877</ele>
        <time>2017-04-29T13:18:15Z</time>
      </trkpt>
      <trkpt lat="50.37371" lon="5.14779">
        <ele>289.08811835944</ele>
        <time>2017-04-29T13:18:19Z</time>
      </trkpt>
      <trkpt lat="50.374" lon="5.14753">
        <ele>292.52704121129</ele>
        <time>2017-04-29T13:18:24Z</time>
      </trkpt>
      <trkpt lat="50.37431" lon="5.14719">
        <ele>297.23229734927</ele>
        <time>2017-04-29T13:18:29Z</time>
      </trkpt>
      <trkpt lat="50.3746" lon="5.14692">
        <ele>296.44863756494</ele>
        <time>2017-04-29T13:18:33Z</time>
      </trkpt>
      <trkpt lat="50.37505" lon="5.1466">
        <ele>291.86112375463</ele>
        <time>2017-04-29T13:18:38Z</time>
      </trkpt>
      <trkpt lat="50.37537" lon="5.14634">
        <ele>289.68792688777</ele>
        <time>2017-04-29T13:18:42Z</time>
      </trkpt>
      <trkpt lat="50.37569" lon="5.14612">
        <ele>287.49118456079</ele>
        <time>2017-04-29T13:18:46Z</time>
      </trkpt>
      <trkpt lat="50.37604" lon="5.14584">
        <ele>283.34331831741</ele>
        <time>2017-04-29T13:18:51Z</time>
      </trkpt>
      <trkpt lat="50.37622" lon="5.14569">
        <ele>281.89592005243</ele>
        <time>2017-04-29T13:18:56Z</time>
      </trkpt>
      <trkpt lat="50.37637" lon="5.14556">
        <ele>281.59637757441</ele>
        <time>2017-04-29T13:19:00Z</time>
      </trkpt>
      <trkpt lat="50.37667" lon="5.14533">
        <ele>281.858055257</ele>
        <time>2017-04-29T13:19:05Z</time>
      </trkpt>
      <trkpt lat="50.37692" lon="5.14514">
        <ele>279.85099942548</ele>
        <time>2017-04-29T13:19:09Z</time>
      </trkpt>
      <trkpt lat="50.37725" lon="5.1449">
        <ele>278.42279642903</ele>
        <time>2017-04-29T13:19:14Z</time>
      </trkpt>
      <trkpt lat="50.37754" lon="5.14469">
        <ele>277.93687913724</ele>
        <time>2017-04-29T13:19:18Z</time>
      </trkpt>
      <trkpt lat="50.37782" lon="5.14448">
        <ele>276.31917762752</ele>
        <time>2017-04-29T13:19:22Z</time>
      </trkpt>
      <trkpt lat="50.37816" lon="5.14423">
        <ele>273.72893498986</ele>
        <time>2017-04-29T13:19:27Z</time>
      </trkpt>
      <trkpt lat="50.3784" lon="5.14408">
        <ele>270.68849648859</ele>
        <time>2017-04-29T13:19:31Z</time>
      </trkpt>
      <trkpt lat="50.37857" lon="5.14426">
        <ele>269.94466463816</ele>
        <time>2017-04-29T13:19:35Z</time>
      </trkpt>
      <trkpt lat="50.37872" lon="5.14458">
        <ele>270.23659908039</ele>
        <time>2017-04-29T13:19:39Z</time>
      </trkpt>
      <trkpt lat="50.37888" lon="5.14491">
        <ele>271.24754053832</ele>
        <time>2017-04-29T13:19:43Z</time>
      </trkpt>
      <trkpt lat="50.37911" lon="5.14533">
        <ele>273.18097009125</ele>
        <time>2017-04-29T13:19:48Z</time>
      </trkpt>
      <trkpt lat="50.37929" lon="5.14567">
        <ele>273.19605260499</ele>
        <time>2017-04-29T13:19:52Z</time>
      </trkpt>
      <trkpt lat="50.37946" lon="5.146">
        <ele>272.45719164309</ele>
        <time>2017-04-29T13:19:56Z</time>
      </trkpt>
      <trkpt lat="50.37967" lon="5.14638">
        <ele>273.50348164845</ele>
        <time>2017-04-29T13:20:01Z</time>
      </trkpt>
      <trkpt lat="50.37989" lon="5.14677">
        <ele>272.50106173983</ele>
        <time>2017-04-29T13:20:06Z</time>
      </trkpt>
      <trkpt lat="50.38006" lon="5.14707">
        <ele>271.73686433384</ele>
        <time>2017-04-29T13:20:10Z</time>
      </trkpt>
      <trkpt lat="50.38023" lon="5.14734">
        <ele>272.00618253253</ele>
        <time>2017-04-29T13:20:14Z</time>
      </trkpt>
      <trkpt lat="50.3804" lon="5.14765">
        <ele>270.76983717985</ele>
        <time>2017-04-29T13:20:18Z</time>
      </trkpt>
      <trkpt lat="50.38067" lon="5.14797">
        <ele>270.07684479885</ele>
        <time>2017-04-29T13:20:23Z</time>
      </trkpt>
      <trkpt lat="50.38094" lon="5.14813">
        <ele>269.10038669633</ele>
        <time>2017-04-29T13:20:27Z</time>
      </trkpt>
      <trkpt lat="50.38127" lon="5.14809">
        <ele>267.85439822481</ele>
        <time>2017-04-29T13:20:32Z</time>
      </trkpt>
      <trkpt lat="50.3815" lon="5.14798">
        <ele>265.52090195954</ele>
        <time>2017-04-29T13:20:36Z</time>
      </trkpt>
      <trkpt lat="50.38173" lon="5.14805">
        <ele>264.32748854267</ele>
        <time>2017-04-29T13:20:40Z</time>
      </trkpt>
      <trkpt lat="50.38196" lon="5.14833">
        <ele>260.97768147625</ele>
        <time>2017-04-29T13:20:45Z</time>
      </trkpt>
      <trkpt lat="50.38215" lon="5.14855">
        <ele>256.07627473505</ele>
        <time>2017-04-29T13:20:49Z</time>
      </trkpt>
      <trkpt lat="50.38236" lon="5.14876">
        <ele>252.29912189266</ele>
        <time>2017-04-29T13:20:54Z</time>
      </trkpt>
      <trkpt lat="50.38252" lon="5.14888">
        <ele>253.8130491798</ele>
        <time>2017-04-29T13:20:58Z</time>
      </trkpt>
      <trkpt lat="50.38269" lon="5.14894">
        <ele>255.82916773187</ele>
        <time>2017-04-29T13:21:02Z</time>
      </trkpt>
      <trkpt lat="50.3829" lon="5.14886">
        <ele>254.62182327743</ele>
        <time>2017-04-29T13:21:07Z</time>
      </trkpt>
      <trkpt lat="50.38304" lon="5.14873">
        <ele>253.84269046824</ele>
        <time>2017-04-29T13:21:11Z</time>
      </trkpt>
      <trkpt lat="50.38318" lon="5.14858">
        <ele>255.98923715297</ele>
        <time>2017-04-29T13:21:15Z</time>
      </trkpt>
      <trkpt lat="50.38335" lon="5.14859">
        <ele>261.88321874725</ele>
        <time>2017-04-29T13:21:19Z</time>
      </trkpt>
      <trkpt lat="50.38348" lon="5.14876">
        <ele>267.52124125758</ele>
        <time>2017-04-29T13:21:23Z</time>
      </trkpt>
      <trkpt lat="50.38364" lon="5.14899">
        <ele>268.85121859583</ele>
        <time>2017-04-29T13:21:27Z</time>
      </trkpt>
      <trkpt lat="50.38381" lon="5.14939">
        <ele>272.56089497828</ele>
        <time>2017-04-29T13:21:32Z</time>
      </trkpt>
      <trkpt lat="50.3839" lon="5.14971">
        <ele>273.13202466426</ele>
        <time>2017-04-29T13:21:36Z</time>
      </trkpt>
      <trkpt lat="50.38401" lon="5.14996">
        <ele>271.64847265578</ele>
        <time>2017-04-29T13:21:41Z</time>
      </trkpt>
      <trkpt lat="50.38422" lon="5.14989">
        <ele>268.26160142057</ele>
        <time>2017-04-29T13:21:45Z</time>
      </trkpt>
      <trkpt lat="50.38441" lon="5.14974">
        <ele>268.74486923602</ele>
        <time>2017-04-29T13:21:49Z</time>
      </trkpt>
      <trkpt lat="50.38459" lon="5.14995">
        <ele>269.82450087666</ele>
        <time>2017-04-29T13:21:54Z</time>
      </trkpt>
      <trkpt lat="50.38475" lon="5.15029">
        <ele>273.49703792574</ele>
        <time>2017-04-29T13:21:59Z</time>
      </trkpt>
      <trkpt lat="50.38487" lon="5.15055">
        <ele>271.57397599324</ele>
        <time>2017-04-29T13:22:03Z</time>
      </trkpt>
      <trkpt lat="50.38504" lon="5.15085">
        <ele>269.49672829049</ele>
        <time>2017-04-29T13:22:08Z</time>
      </trkpt>
      <trkpt lat="50.38524" lon="5.15114">
        <ele>268.1948661499</ele>
        <time>2017-04-29T13:22:13Z</time>
      </trkpt>
      <trkpt lat="50.38545" lon="5.15138">
        <ele>271.94187165708</ele>
        <time>2017-04-29T13:22:17Z</time>
      </trkpt>
      <trkpt lat="50.38566" lon="5.1516">
        <ele>271.93627268212</ele>
        <time>2017-04-29T13:22:21Z</time>
      </trkpt>
      <trkpt lat="50.38585" lon="5.1518">
        <ele>270.8911402092</ele>
        <time>2017-04-29T13:22:25Z</time>
      </trkpt>
      <trkpt lat="50.38603" lon="5.15201">
        <ele>273.40909837136</ele>
        <time>2017-04-29T13:22:29Z</time>
      </trkpt>
      <trkpt lat="50.38622" lon="5.15234">
        <ele>274.956828667</ele>
        <time>2017-04-29T13:22:34Z</time>
      </trkpt>
      <trkpt lat="50.38635" lon="5.15259">
        <ele>275.21071602226</ele>
        <time>2017-04-29T13:22:38Z</time>
      </trkpt>
      <trkpt lat="50.38651" lon="5.15293">
        <ele>273.36495770713</ele>
        <time>2017-04-29T13:22:43Z</time>
      </trkpt>
      <trkpt lat="50.38669" lon="5.15315">
        <ele>276.03119240471</ele>
        <time>2017-04-29T13:22:47Z</time>
      </trkpt>
      <trkpt lat="50.38688" lon="5.15346">
        <ele>278.86433193549</ele>
        <time>2017-04-29T13:22:51Z</time>
      </trkpt>
      <trkpt lat="50.38704" lon="5.15371">
        <ele>281.15125506079</ele>
        <time>2017-04-29T13:22:55Z</time>
      </trkpt>
      <trkpt lat="50.38729" lon="5.15393">
        <ele>283.4460055125</ele>
        <time>2017-04-29T13:23:00Z</time>
      </trkpt>
      <trkpt lat="50.38751" lon="5.15409">
        <ele>285.02264457807</ele>
        <time>2017-04-29T13:23:04Z</time>
      </trkpt>
      <trkpt lat="50.3877" lon="5.15423">
        <ele>286.92938638893</ele>
        <time>2017-04-29T13:23:08Z</time>
      </trkpt>
      <trkpt lat="50.38794" lon="5.15437">
        <ele>286.12222900775</ele>
        <time>2017-04-29T13:23:13Z</time>
      </trkpt>
      <trkpt lat="50.38815" lon="5.15456">
        <ele>285.03019468622</ele>
        <time>2017-04-29T13:23:17Z</time>
      </trkpt>
      <trkpt lat="50.38833" lon="5.15474">
        <ele>288.31289475369</ele>
        <time>2017-04-29T13:23:21Z</time>
      </trkpt>
      <trkpt lat="50.38851" lon="5.15486">
        <ele>290.39037274719</ele>
        <time>2017-04-29T13:23:25Z</time>
      </trkpt>
      <trkpt lat="50.38871" lon="5.15506">
        <ele>290.48082680839</ele>
        <time>2017-04-29T13:23:29Z</time>
      </trkpt>
      <trkpt lat="50.38892" lon="5.15538">
        <ele>289.38131372063</ele>
        <time>2017-04-29T13:23:34Z</time>
      </trkpt>
      <trkpt lat="50.38907" lon="5.15562">
        <ele>291.29912525887</ele>
        <time>2017-04-29T13:23:38Z</time>
      </trkpt>
      <trkpt lat="50.38926" lon="5.15593">
        <ele>288.58386813179</ele>
        <time>2017-04-29T13:23:43Z</time>
      </trkpt>
      <trkpt lat="50.38947" lon="5.15625">
        <ele>286.88763686056</ele>
        <time>2017-04-29T13:23:48Z</time>
      </trkpt>
      <trkpt lat="50.3897" lon="5.15654">
        <ele>286.96941649566</ele>
        <time>2017-04-29T13:23:53Z</time>
      </trkpt>
      <trkpt lat="50.38994" lon="5.15683">
        <ele>288.50637244585</ele>
        <time>2017-04-29T13:23:58Z</time>
      </trkpt>
      <trkpt lat="50.39012" lon="5.15705">
        <ele>289.40747524933</ele>
        <time>2017-04-29T13:24:02Z</time>
      </trkpt>
      <trkpt lat="50.39036" lon="5.15733">
        <ele>289.21050053829</ele>
        <time>2017-04-29T13:24:07Z</time>
      </trkpt>
      <trkpt lat="50.39059" lon="5.1576">
        <ele>288.47645090271</ele>
        <time>2017-04-29T13:24:12Z</time>
      </trkpt>
      <trkpt lat="50.3908" lon="5.15781">
        <ele>290.45848097111</ele>
        <time>2017-04-29T13:24:16Z</time>
      </trkpt>
      <trkpt lat="50.39103" lon="5.15795">
        <ele>292.3220676181</ele>
        <time>2017-04-29T13:24:20Z</time>
      </trkpt>
      <trkpt lat="50.39131" lon="5.15812">
        <ele>292.28483532767</ele>
        <time>2017-04-29T13:24:25Z</time>
      </trkpt>
      <trkpt lat="50.39156" lon="5.15827">
        <ele>293.07058941419</ele>
        <time>2017-04-29T13:24:29Z</time>
      </trkpt>
      <trkpt lat="50.39185" lon="5.15844">
        <ele>293.19749783675</ele>
        <time>2017-04-29T13:24:34Z</time>
      </trkpt>
      <trkpt lat="50.39209" lon="5.15857">
        <ele>293.37890148632</ele>
        <time>2017-04-29T13:24:38Z</time>
      </trkpt>
      <trkpt lat="50.39237" lon="5.15876">
        <ele>293.00602801065</ele>
        <time>2017-04-29T13:24:43Z</time>
      </trkpt>
      <trkpt lat="50.39258" lon="5.15897">
        <ele>292.65351254223</ele>
        <time>2017-04-29T13:24:47Z</time>
      </trkpt>
      <trkpt lat="50.39284" lon="5.15922">
        <ele>291.86833705632</ele>
        <time>2017-04-29T13:24:52Z</time>
      </trkpt>
      <trkpt lat="50.39304" lon="5.15942">
        <ele>289.50779968749</ele>
        <time>2017-04-29T13:24:56Z</time>
      </trkpt>
      <trkpt lat="50.39323" lon="5.15957">
        <ele>286.48183161756</ele>
        <time>2017-04-29T13:25:01Z</time>
      </trkpt>
      <trkpt lat="50.39335" lon="5.15962">
        <ele>286.52613105248</ele>
        <time>2017-04-29T13:25:05Z</time>
      </trkpt>
      <trkpt lat="50.39339" lon="5.15952">
        <ele>286.67848653526</ele>
        <time>2017-04-29T13:25:12Z</time>
      </trkpt>
      <trkpt lat="50.39343" lon="5.15942">
        <ele>288.046656476</ele>
        <time>2017-04-29T13:26:14Z</time>
      </trkpt>
      <trkpt lat="50.3935" lon="5.15912">
        <ele>286.24273534098</ele>
        <time>2017-04-29T13:26:19Z</time>
      </trkpt>
      <trkpt lat="50.39358" lon="5.15883">
        <ele>286.01788016631</ele>
        <time>2017-04-29T13:26:23Z</time>
      </trkpt>
      <trkpt lat="50.39368" lon="5.15842">
        <ele>288.89665257309</ele>
        <time>2017-04-29T13:26:28Z</time>
      </trkpt>
      <trkpt lat="50.39375" lon="5.1581">
        <ele>287.84842733603</ele>
        <time>2017-04-29T13:26:32Z</time>
      </trkpt>
      <trkpt lat="50.39387" lon="5.15766">
        <ele>285.96576907343</ele>
        <time>2017-04-29T13:26:37Z</time>
      </trkpt>
      <trkpt lat="50.39393" lon="5.15732">
        <ele>286.72134442295</ele>
        <time>2017-04-29T13:26:41Z</time>
      </trkpt>
      <trkpt lat="50.39402" lon="5.15699">
        <ele>287.31387374537</ele>
        <time>2017-04-29T13:26:45Z</time>
      </trkpt>
      <trkpt lat="50.39411" lon="5.15663">
        <ele>289.17386195954</ele>
        <time>2017-04-29T13:26:49Z</time>
      </trkpt>
      <trkpt lat="50.39423" lon="5.15623">
        <ele>289.86734812109</ele>
        <time>2017-04-29T13:26:54Z</time>
      </trkpt>
      <trkpt lat="50.39433" lon="5.15591">
        <ele>289.32656540404</ele>
        <time>2017-04-29T13:26:58Z</time>
      </trkpt>
      <trkpt lat="50.39443" lon="5.15554">
        <ele>287.58836115946</ele>
        <time>2017-04-29T13:27:02Z</time>
      </trkpt>
      <trkpt lat="50.39452" lon="5.15518">
        <ele>287.64152857254</ele>
        <time>2017-04-29T13:27:06Z</time>
      </trkpt>
      <trkpt lat="50.39462" lon="5.15469">
        <ele>287.39769004071</ele>
        <time>2017-04-29T13:27:11Z</time>
      </trkpt>
      <trkpt lat="50.39471" lon="5.15425">
        <ele>288.81681278595</ele>
        <time>2017-04-29T13:27:15Z</time>
      </trkpt>
      <trkpt lat="50.39478" lon="5.15382">
        <ele>290.34109070201</ele>
        <time>2017-04-29T13:27:19Z</time>
      </trkpt>
      <trkpt lat="50.39489" lon="5.15327">
        <ele>291.74805955085</ele>
        <time>2017-04-29T13:27:24Z</time>
      </trkpt>
      <trkpt lat="50.39497" lon="5.15282">
        <ele>292.40079337786</ele>
        <time>2017-04-29T13:27:28Z</time>
      </trkpt>
      <trkpt lat="50.39505" lon="5.15237">
        <ele>292.72151738256</ele>
        <time>2017-04-29T13:27:32Z</time>
      </trkpt>
      <trkpt lat="50.39516" lon="5.1518">
        <ele>292.98245981355</ele>
        <time>2017-04-29T13:27:37Z</time>
      </trkpt>
      <trkpt lat="50.39525" lon="5.15134">
        <ele>292.76649223574</ele>
        <time>2017-04-29T13:27:41Z</time>
      </trkpt>
      <trkpt lat="50.39534" lon="5.1509">
        <ele>290.13637648142</ele>
        <time>2017-04-29T13:27:45Z</time>
      </trkpt>
      <trkpt lat="50.39545" lon="5.15042">
        <ele>286.54063417683</ele>
        <time>2017-04-29T13:27:49Z</time>
      </trkpt>
      <trkpt lat="50.39556" lon="5.14994">
        <ele>284.88587183922</ele>
        <time>2017-04-29T13:27:53Z</time>
      </trkpt>
      <trkpt lat="50.39572" lon="5.14934">
        <ele>282.94483043991</ele>
        <time>2017-04-29T13:27:58Z</time>
      </trkpt>
      <trkpt lat="50.39584" lon="5.14872">
        <ele>281.14497782785</ele>
        <time>2017-04-29T13:28:03Z</time>
      </trkpt>
      <trkpt lat="50.39591" lon="5.14823">
        <ele>278.0574857021</ele>
        <time>2017-04-29T13:28:07Z</time>
      </trkpt>
      <trkpt lat="50.39604" lon="5.14765">
        <ele>276.44262816176</ele>
        <time>2017-04-29T13:28:12Z</time>
      </trkpt>
      <trkpt lat="50.39601" lon="5.1472">
        <ele>275.75536312513</ele>
        <time>2017-04-29T13:28:16Z</time>
      </trkpt>
      <trkpt lat="50.39571" lon="5.14675">
        <ele>272.75106529557</ele>
        <time>2017-04-29T13:28:21Z</time>
      </trkpt>
      <trkpt lat="50.3955" lon="5.14629">
        <ele>275.91102661101</ele>
        <time>2017-04-29T13:28:26Z</time>
      </trkpt>
      <trkpt lat="50.39536" lon="5.14593">
        <ele>277.73725689396</ele>
        <time>2017-04-29T13:28:30Z</time>
      </trkpt>
      <trkpt lat="50.39514" lon="5.14553">
        <ele>280.75531199145</ele>
        <time>2017-04-29T13:28:35Z</time>
      </trkpt>
      <trkpt lat="50.39496" lon="5.14522">
        <ele>278.84116322871</ele>
        <time>2017-04-29T13:28:39Z</time>
      </trkpt>
      <trkpt lat="50.39474" lon="5.1448">
        <ele>276.326759615</ele>
        <time>2017-04-29T13:28:44Z</time>
      </trkpt>
      <trkpt lat="50.39471" lon="5.14441">
        <ele>277.53605876109</ele>
        <time>2017-04-29T13:28:48Z</time>
      </trkpt>
      <trkpt lat="50.39474" lon="5.14392">
        <ele>278.77116717306</ele>
        <time>2017-04-29T13:28:53Z</time>
      </trkpt>
      <trkpt lat="50.39463" lon="5.14354">
        <ele>279.13644819141</ele>
        <time>2017-04-29T13:28:57Z</time>
      </trkpt>
      <trkpt lat="50.39456" lon="5.14303">
        <ele>280.86141532874</ele>
        <time>2017-04-29T13:29:02Z</time>
      </trkpt>
      <trkpt lat="50.39466" lon="5.14261">
        <ele>279.26550104374</ele>
        <time>2017-04-29T13:29:06Z</time>
      </trkpt>
      <trkpt lat="50.39503" lon="5.14214">
        <ele>276.80680942944</ele>
        <time>2017-04-29T13:29:11Z</time>
      </trkpt>
      <trkpt lat="50.39533" lon="5.14186">
        <ele>272.42147261572</ele>
        <time>2017-04-29T13:29:15Z</time>
      </trkpt>
      <trkpt lat="50.39561" lon="5.14158">
        <ele>267.56948719386</ele>
        <time>2017-04-29T13:29:20Z</time>
      </trkpt>
      <trkpt lat="50.39554" lon="5.14131">
        <ele>263.87422589436</ele>
        <time>2017-04-29T13:29:24Z</time>
      </trkpt>
      <trkpt lat="50.39536" lon="5.14091">
        <ele>261.55581954261</ele>
        <time>2017-04-29T13:29:29Z</time>
      </trkpt>
      <trkpt lat="50.39519" lon="5.14045">
        <ele>262.2971970779</ele>
        <time>2017-04-29T13:29:34Z</time>
      </trkpt>
      <trkpt lat="50.3952" lon="5.14001">
        <ele>262.76809416539</ele>
        <time>2017-04-29T13:29:39Z</time>
      </trkpt>
      <trkpt lat="50.39545" lon="5.13977">
        <ele>262.478702264</ele>
        <time>2017-04-29T13:29:43Z</time>
      </trkpt>
      <trkpt lat="50.39573" lon="5.13944">
        <ele>266.28239890626</ele>
        <time>2017-04-29T13:29:47Z</time>
      </trkpt>
      <trkpt lat="50.3961" lon="5.13908">
        <ele>267.862209731</ele>
        <time>2017-04-29T13:29:52Z</time>
      </trkpt>
      <trkpt lat="50.39637" lon="5.13887">
        <ele>266.13710302509</ele>
        <time>2017-04-29T13:29:56Z</time>
      </trkpt>
      <trkpt lat="50.39667" lon="5.13864">
        <ele>263.0350789745</ele>
        <time>2017-04-29T13:30:01Z</time>
      </trkpt>
      <trkpt lat="50.39682" lon="5.13829">
        <ele>259.54639003645</ele>
        <time>2017-04-29T13:30:06Z</time>
      </trkpt>
      <trkpt lat="50.3969" lon="5.13796">
        <ele>255.18821359088</ele>
        <time>2017-04-29T13:30:10Z</time>
      </trkpt>
      <trkpt lat="50.39697" lon="5.13761">
        <ele>253.03947767571</ele>
        <time>2017-04-29T13:30:14Z</time>
      </trkpt>
      <trkpt lat="50.39705" lon="5.13728">
        <ele>253.47258034565</ele>
        <time>2017-04-29T13:30:18Z</time>
      </trkpt>
      <trkpt lat="50.39712" lon="5.13694">
        <ele>254.30352119712</ele>
        <time>2017-04-29T13:30:22Z</time>
      </trkpt>
      <trkpt lat="50.3972" lon="5.13655">
        <ele>253.9195480587</ele>
        <time>2017-04-29T13:30:26Z</time>
      </trkpt>
      <trkpt lat="50.39729" lon="5.13616">
        <ele>253.20958563092</ele>
        <time>2017-04-29T13:30:30Z</time>
      </trkpt>
      <trkpt lat="50.39738" lon="5.13576">
        <ele>253.99993541853</ele>
        <time>2017-04-29T13:30:34Z</time>
      </trkpt>
      <trkpt lat="50.39748" lon="5.13537">
        <ele>255.00191286399</ele>
        <time>2017-04-29T13:30:38Z</time>
      </trkpt>
      <trkpt lat="50.39758" lon="5.135">
        <ele>256.55991941108</ele>
        <time>2017-04-29T13:30:42Z</time>
      </trkpt>
      <trkpt lat="50.39771" lon="5.13452">
        <ele>258.64579284813</ele>
        <time>2017-04-29T13:30:47Z</time>
      </trkpt>
      <trkpt lat="50.3978" lon="5.13414">
        <ele>259.71202408469</ele>
        <time>2017-04-29T13:30:51Z</time>
      </trkpt>
      <trkpt lat="50.39792" lon="5.13371">
        <ele>258.59509679196</ele>
        <time>2017-04-29T13:30:56Z</time>
      </trkpt>
      <trkpt lat="50.39801" lon="5.13341">
        <ele>260.95260936402</ele>
        <time>2017-04-29T13:31:00Z</time>
      </trkpt>
      <trkpt lat="50.39812" lon="5.13318">
        <ele>263.66855938712</ele>
        <time>2017-04-29T13:31:04Z</time>
      </trkpt>
      <trkpt lat="50.39828" lon="5.13293">
        <ele>264.15732202657</ele>
        <time>2017-04-29T13:31:09Z</time>
      </trkpt>
      <trkpt lat="50.39841" lon="5.13271">
        <ele>266.7747820668</ele>
        <time>2017-04-29T13:31:13Z</time>
      </trkpt>
      <trkpt lat="50.39855" lon="5.13237">
        <ele>270.33240581038</ele>
        <time>2017-04-29T13:31:18Z</time>
      </trkpt>
      <trkpt lat="50.39865" lon="5.13211">
        <ele>270.99147566817</ele>
        <time>2017-04-29T13:31:22Z</time>
      </trkpt>
      <trkpt lat="50.39876" lon="5.13183">
        <ele>270.04589399866</ele>
        <time>2017-04-29T13:31:26Z</time>
      </trkpt>
      <trkpt lat="50.3989" lon="5.13147">
        <ele>267.28987617735</ele>
        <time>2017-04-29T13:31:31Z</time>
      </trkpt>
      <trkpt lat="50.39903" lon="5.13108">
        <ele>268.43388632264</ele>
        <time>2017-04-29T13:31:36Z</time>
      </trkpt>
      <trkpt lat="50.39914" lon="5.13076">
        <ele>268.20168250019</ele>
        <time>2017-04-29T13:31:40Z</time>
      </trkpt>
      <trkpt lat="50.39937" lon="5.13046">
        <ele>265.56287979284</ele>
        <time>2017-04-29T13:31:45Z</time>
      </trkpt>
      <trkpt lat="50.39961" lon="5.13027">
        <ele>268.05604892745</ele>
        <time>2017-04-29T13:31:50Z</time>
      </trkpt>
      <trkpt lat="50.3998" lon="5.13013">
        <ele>271.62666735505</ele>
        <time>2017-04-29T13:31:54Z</time>
      </trkpt>
      <trkpt lat="50.39991" lon="5.13006">
        <ele>271.94645064567</ele>
        <time>2017-04-29T13:31:58Z</time>
      </trkpt>
      <trkpt lat="50.39996" lon="5.13011">
        <ele>272.85959421585</ele>
        <time>2017-04-29T13:32:51Z</time>
      </trkpt>
      <trkpt lat="50.40008" lon="5.13049">
        <ele>273.90767321052</ele>
        <time>2017-04-29T13:32:56Z</time>
      </trkpt>
      <trkpt lat="50.4002" lon="5.13088">
        <ele>275.05011962069</ele>
        <time>2017-04-29T13:33:01Z</time>
      </trkpt>
      <trkpt lat="50.40031" lon="5.13124">
        <ele>275.39886144199</ele>
        <time>2017-04-29T13:33:05Z</time>
      </trkpt>
      <trkpt lat="50.40041" lon="5.1316">
        <ele>274.51439973812</ele>
        <time>2017-04-29T13:33:09Z</time>
      </trkpt>
      <trkpt lat="50.40055" lon="5.13203">
        <ele>274.13829225669</ele>
        <time>2017-04-29T13:33:14Z</time>
      </trkpt>
      <trkpt lat="50.40068" lon="5.13237">
        <ele>274.23478948283</ele>
        <time>2017-04-29T13:33:18Z</time>
      </trkpt>
      <trkpt lat="50.40083" lon="5.13284">
        <ele>274.38199153411</ele>
        <time>2017-04-29T13:33:23Z</time>
      </trkpt>
      <trkpt lat="50.40093" lon="5.13322">
        <ele>274.83506263556</ele>
        <time>2017-04-29T13:33:27Z</time>
      </trkpt>
      <trkpt lat="50.40107" lon="5.1337">
        <ele>276.80482028586</ele>
        <time>2017-04-29T13:33:32Z</time>
      </trkpt>
      <trkpt lat="50.40122" lon="5.13417">
        <ele>277.50785412496</ele>
        <time>2017-04-29T13:33:37Z</time>
      </trkpt>
      <trkpt lat="50.40133" lon="5.13454">
        <ele>278.73115897806</ele>
        <time>2017-04-29T13:33:41Z</time>
      </trkpt>
      <trkpt lat="50.40145" lon="5.135">
        <ele>278.14814403628</ele>
        <time>2017-04-29T13:33:46Z</time>
      </trkpt>
      <trkpt lat="50.40158" lon="5.13546">
        <ele>275.93539462602</ele>
        <time>2017-04-29T13:33:51Z</time>
      </trkpt>
      <trkpt lat="50.40168" lon="5.13583">
        <ele>275.0377082706</ele>
        <time>2017-04-29T13:33:55Z</time>
      </trkpt>
      <trkpt lat="50.40181" lon="5.13631">
        <ele>276.53852536772</ele>
        <time>2017-04-29T13:34:00Z</time>
      </trkpt>
      <trkpt lat="50.40192" lon="5.13668">
        <ele>278.10403836432</ele>
        <time>2017-04-29T13:34:04Z</time>
      </trkpt>
      <trkpt lat="50.40204" lon="5.13706">
        <ele>279.17153522771</ele>
        <time>2017-04-29T13:34:08Z</time>
      </trkpt>
      <trkpt lat="50.40216" lon="5.13743">
        <ele>280.12323075513</ele>
        <time>2017-04-29T13:34:12Z</time>
      </trkpt>
      <trkpt lat="50.40228" lon="5.13782">
        <ele>279.51535717864</ele>
        <time>2017-04-29T13:34:16Z</time>
      </trkpt>
      <trkpt lat="50.40239" lon="5.13818">
        <ele>279.30891634233</ele>
        <time>2017-04-29T13:34:20Z</time>
      </trkpt>
      <trkpt lat="50.4025" lon="5.13855">
        <ele>277.03213374584</ele>
        <time>2017-04-29T13:34:24Z</time>
      </trkpt>
      <trkpt lat="50.40262" lon="5.1389">
        <ele>276.23854893725</ele>
        <time>2017-04-29T13:34:28Z</time>
      </trkpt>
      <trkpt lat="50.40275" lon="5.1393">
        <ele>274.84983769064</ele>
        <time>2017-04-29T13:34:33Z</time>
      </trkpt>
      <trkpt lat="50.40289" lon="5.13978">
        <ele>273.80936130162</ele>
        <time>2017-04-29T13:34:38Z</time>
      </trkpt>
      <trkpt lat="50.403" lon="5.14019">
        <ele>273.99440915615</ele>
        <time>2017-04-29T13:34:42Z</time>
      </trkpt>
      <trkpt lat="50.40322" lon="5.14054">
        <ele>270.11212757372</ele>
        <time>2017-04-29T13:34:47Z</time>
      </trkpt>
      <trkpt lat="50.4034" lon="5.14079">
        <ele>264.59162138716</ele>
        <time>2017-04-29T13:34:51Z</time>
      </trkpt>
      <trkpt lat="50.4036" lon="5.14129">
        <ele>264.28776392557</ele>
        <time>2017-04-29T13:34:56Z</time>
      </trkpt>
      <trkpt lat="50.40373" lon="5.14168">
        <ele>264.33531802909</ele>
        <time>2017-04-29T13:35:00Z</time>
      </trkpt>
      <trkpt lat="50.40384" lon="5.14206">
        <ele>267.47770514327</ele>
        <time>2017-04-29T13:35:04Z</time>
      </trkpt>
      <trkpt lat="50.40399" lon="5.14237">
        <ele>265.18777927292</ele>
        <time>2017-04-29T13:35:08Z</time>
      </trkpt>
      <trkpt lat="50.40422" lon="5.14276">
        <ele>260.45606922809</ele>
        <time>2017-04-29T13:35:13Z</time>
      </trkpt>
      <trkpt lat="50.40446" lon="5.14316">
        <ele>256.69073072116</ele>
        <time>2017-04-29T13:35:18Z</time>
      </trkpt>
      <trkpt lat="50.40464" lon="5.1435">
        <ele>258.07526373388</ele>
        <time>2017-04-29T13:35:22Z</time>
      </trkpt>
      <trkpt lat="50.40481" lon="5.14383">
        <ele>258.95153095703</ele>
        <time>2017-04-29T13:35:26Z</time>
      </trkpt>
      <trkpt lat="50.40502" lon="5.14425">
        <ele>259.27423982044</ele>
        <time>2017-04-29T13:35:31Z</time>
      </trkpt>
      <trkpt lat="50.40519" lon="5.14459">
        <ele>261.63249806911</ele>
        <time>2017-04-29T13:35:35Z</time>
      </trkpt>
      <trkpt lat="50.40534" lon="5.14491">
        <ele>263.33986303255</ele>
        <time>2017-04-29T13:35:39Z</time>
      </trkpt>
      <trkpt lat="50.40555" lon="5.14534">
        <ele>263.77363441159</ele>
        <time>2017-04-29T13:35:44Z</time>
      </trkpt>
      <trkpt lat="50.40574" lon="5.14575">
        <ele>266.35421836327</ele>
        <time>2017-04-29T13:35:49Z</time>
      </trkpt>
      <trkpt lat="50.4059" lon="5.1461">
        <ele>270.62376250956</ele>
        <time>2017-04-29T13:35:53Z</time>
      </trkpt>
      <trkpt lat="50.40605" lon="5.14642">
        <ele>272.85643511554</ele>
        <time>2017-04-29T13:35:57Z</time>
      </trkpt>
      <trkpt lat="50.40621" lon="5.14675">
        <ele>275.3591222783</ele>
        <time>2017-04-29T13:36:02Z</time>
      </trkpt>
      <trkpt lat="50.4063" lon="5.147">
        <ele>277.21256968805</ele>
        <time>2017-04-29T13:36:06Z</time>
      </trkpt>
      <trkpt lat="50.40638" lon="5.14725">
        <ele>277.76121877503</ele>
        <time>2017-04-29T13:36:10Z</time>
      </trkpt>
      <trkpt lat="50.4065" lon="5.14768">
        <ele>278.75419053562</ele>
        <time>2017-04-29T13:36:15Z</time>
      </trkpt>
      <trkpt lat="50.40665" lon="5.14813">
        <ele>280.67341654511</ele>
        <time>2017-04-29T13:36:20Z</time>
      </trkpt>
      <trkpt lat="50.40676" lon="5.1485">
        <ele>281.32014323016</ele>
        <time>2017-04-29T13:36:24Z</time>
      </trkpt>
      <trkpt lat="50.4069" lon="5.14898">
        <ele>280.45265423003</ele>
        <time>2017-04-29T13:36:29Z</time>
      </trkpt>
      <trkpt lat="50.40702" lon="5.14937">
        <ele>281.09431963759</ele>
        <time>2017-04-29T13:36:33Z</time>
      </trkpt>
      <trkpt lat="50.40718" lon="5.14983">
        <ele>282.15704956768</ele>
        <time>2017-04-29T13:36:38Z</time>
      </trkpt>
      <trkpt lat="50.40733" lon="5.15018">
        <ele>282.12590044767</ele>
        <time>2017-04-29T13:36:42Z</time>
      </trkpt>
      <trkpt lat="50.40753" lon="5.1506">
        <ele>280.75025065947</ele>
        <time>2017-04-29T13:36:47Z</time>
      </trkpt>
      <trkpt lat="50.40769" lon="5.15095">
        <ele>280.06513330723</ele>
        <time>2017-04-29T13:36:51Z</time>
      </trkpt>
      <trkpt lat="50.40789" lon="5.15135">
        <ele>280.14739135357</ele>
        <time>2017-04-29T13:36:56Z</time>
      </trkpt>
      <trkpt lat="50.40805" lon="5.1517">
        <ele>278.08438562052</ele>
        <time>2017-04-29T13:37:00Z</time>
      </trkpt>
      <trkpt lat="50.4082" lon="5.15203">
        <ele>273.34405214555</ele>
        <time>2017-04-29T13:37:04Z</time>
      </trkpt>
      <trkpt lat="50.4084" lon="5.15244">
        <ele>270.19651541319</ele>
        <time>2017-04-29T13:37:09Z</time>
      </trkpt>
      <trkpt lat="50.4086" lon="5.15284">
        <ele>268.36671430245</ele>
        <time>2017-04-29T13:37:14Z</time>
      </trkpt>
      <trkpt lat="50.40875" lon="5.15318">
        <ele>266.05255895285</ele>
        <time>2017-04-29T13:37:18Z</time>
      </trkpt>
      <trkpt lat="50.4089" lon="5.15351">
        <ele>265.28373288725</ele>
        <time>2017-04-29T13:37:22Z</time>
      </trkpt>
      <trkpt lat="50.4091" lon="5.15393">
        <ele>269.94952357935</ele>
        <time>2017-04-29T13:37:27Z</time>
      </trkpt>
      <trkpt lat="50.40924" lon="5.15424">
        <ele>272.44341172804</ele>
        <time>2017-04-29T13:37:31Z</time>
      </trkpt>
      <trkpt lat="50.40939" lon="5.15456">
        <ele>273.71595675987</ele>
        <time>2017-04-29T13:37:35Z</time>
      </trkpt>
      <trkpt lat="50.40955" lon="5.15489">
        <ele>276.01548863337</ele>
        <time>2017-04-29T13:37:39Z</time>
      </trkpt>
      <trkpt lat="50.40975" lon="5.1553">
        <ele>278.34635595998</ele>
        <time>2017-04-29T13:37:44Z</time>
      </trkpt>
      <trkpt lat="50.40994" lon="5.15571">
        <ele>280.00418239925</ele>
        <time>2017-04-29T13:37:49Z</time>
      </trkpt>
      <trkpt lat="50.4101" lon="5.15604">
        <ele>281.30040558167</ele>
        <time>2017-04-29T13:37:53Z</time>
      </trkpt>
      <trkpt lat="50.41025" lon="5.15637">
        <ele>281.48009470715</ele>
        <time>2017-04-29T13:37:57Z</time>
      </trkpt>
      <trkpt lat="50.41041" lon="5.15671">
        <ele>281.18806281809</ele>
        <time>2017-04-29T13:38:01Z</time>
      </trkpt>
      <trkpt lat="50.41061" lon="5.15713">
        <ele>282.2561983605</ele>
        <time>2017-04-29T13:38:06Z</time>
      </trkpt>
      <trkpt lat="50.41077" lon="5.15747">
        <ele>281.90500480291</ele>
        <time>2017-04-29T13:38:10Z</time>
      </trkpt>
      <trkpt lat="50.41093" lon="5.15781">
        <ele>281.35399099335</ele>
        <time>2017-04-29T13:38:14Z</time>
      </trkpt>
      <trkpt lat="50.41106" lon="5.15816">
        <ele>280.91874240233</ele>
        <time>2017-04-29T13:38:18Z</time>
      </trkpt>
      <trkpt lat="50.41123" lon="5.1585">
        <ele>279.87875495137</ele>
        <time>2017-04-29T13:38:22Z</time>
      </trkpt>
      <trkpt lat="50.41141" lon="5.15883">
        <ele>277.81818118016</ele>
        <time>2017-04-29T13:38:26Z</time>
      </trkpt>
      <trkpt lat="50.41159" lon="5.15917">
        <ele>275.16037135387</ele>
        <time>2017-04-29T13:38:30Z</time>
      </trkpt>
      <trkpt lat="50.4118" lon="5.15959">
        <ele>274.62688249361</ele>
        <time>2017-04-29T13:38:35Z</time>
      </trkpt>
      <trkpt lat="50.41195" lon="5.15993">
        <ele>274.1086297778</ele>
        <time>2017-04-29T13:38:39Z</time>
      </trkpt>
      <trkpt lat="50.41214" lon="5.16035">
        <ele>273.36518157628</ele>
        <time>2017-04-29T13:38:44Z</time>
      </trkpt>
      <trkpt lat="50.41234" lon="5.16078">
        <ele>273.24432427064</ele>
        <time>2017-04-29T13:38:49Z</time>
      </trkpt>
      <trkpt lat="50.4125" lon="5.16112">
        <ele>274.31713478362</ele>
        <time>2017-04-29T13:38:53Z</time>
      </trkpt>
      <trkpt lat="50.41266" lon="5.16146">
        <ele>275.41830486888</ele>
        <time>2017-04-29T13:38:57Z</time>
      </trkpt>
      <trkpt lat="50.41281" lon="5.16179">
        <ele>275.84527797469</ele>
        <time>2017-04-29T13:39:01Z</time>
      </trkpt>
      <trkpt lat="50.41297" lon="5.16212">
        <ele>276.55008954251</ele>
        <time>2017-04-29T13:39:05Z</time>
      </trkpt>
      <trkpt lat="50.41317" lon="5.16253">
        <ele>278.19006639002</ele>
        <time>2017-04-29T13:39:10Z</time>
      </trkpt>
      <trkpt lat="50.41332" lon="5.16286">
        <ele>278.79415542896</ele>
        <time>2017-04-29T13:39:14Z</time>
      </trkpt>
      <trkpt lat="50.41348" lon="5.16318">
        <ele>278.42669151947</ele>
        <time>2017-04-29T13:39:18Z</time>
      </trkpt>
      <trkpt lat="50.41365" lon="5.16361">
        <ele>279.224205285</ele>
        <time>2017-04-29T13:39:23Z</time>
      </trkpt>
      <trkpt lat="50.4136" lon="5.16412">
        <ele>278.04781459609</ele>
        <time>2017-04-29T13:39:28Z</time>
      </trkpt>
      <trkpt lat="50.41352" lon="5.16454">
        <ele>278.53633449385</ele>
        <time>2017-04-29T13:39:32Z</time>
      </trkpt>
      <trkpt lat="50.41339" lon="5.16511">
        <ele>279.91359402135</ele>
        <time>2017-04-29T13:39:37Z</time>
      </trkpt>
      <trkpt lat="50.41326" lon="5.1656">
        <ele>278.79894835047</ele>
        <time>2017-04-29T13:39:41Z</time>
      </trkpt>
      <trkpt lat="50.41313" lon="5.1662">
        <ele>276.23243045612</ele>
        <time>2017-04-29T13:39:46Z</time>
      </trkpt>
      <trkpt lat="50.41302" lon="5.1667">
        <ele>274.83945024799</ele>
        <time>2017-04-29T13:39:51Z</time>
      </trkpt>
      <trkpt lat="50.41292" lon="5.16699">
        <ele>273.45046082464</ele>
        <time>2017-04-29T13:39:56Z</time>
      </trkpt>
      <trkpt lat="50.41286" lon="5.16707">
        <ele>271.39783056335</ele>
        <time>2017-04-29T13:40:42Z</time>
      </trkpt>
      <trkpt lat="50.41283" lon="5.1672">
        <ele>271.07823159621</ele>
        <time>2017-04-29T13:40:46Z</time>
      </trkpt>
      <trkpt lat="50.41278" lon="5.16741">
        <ele>269.80054324326</ele>
        <time>2017-04-29T13:40:50Z</time>
      </trkpt>
      <trkpt lat="50.4127" lon="5.16775">
        <ele>268.85773559909</ele>
        <time>2017-04-29T13:40:54Z</time>
      </trkpt>
      <trkpt lat="50.41263" lon="5.16815">
        <ele>268.59747616842</ele>
        <time>2017-04-29T13:40:58Z</time>
      </trkpt>
      <trkpt lat="50.41254" lon="5.16856">
        <ele>268.35035723904</ele>
        <time>2017-04-29T13:41:02Z</time>
      </trkpt>
      <trkpt lat="50.4124" lon="5.16909">
        <ele>265.70199617453</ele>
        <time>2017-04-29T13:41:07Z</time>
      </trkpt>
      <trkpt lat="50.41228" lon="5.16953">
        <ele>262.31721513351</ele>
        <time>2017-04-29T13:41:11Z</time>
      </trkpt>
      <trkpt lat="50.41217" lon="5.16998">
        <ele>260.05891668214</ele>
        <time>2017-04-29T13:41:15Z</time>
      </trkpt>
      <trkpt lat="50.41206" lon="5.17047">
        <ele>259.6283706644</ele>
        <time>2017-04-29T13:41:19Z</time>
      </trkpt>
      <trkpt lat="50.41191" lon="5.17108">
        <ele>259.03877203209</ele>
        <time>2017-04-29T13:41:24Z</time>
      </trkpt>
      <trkpt lat="50.4118" lon="5.17155">
        <ele>259.49639217219</ele>
        <time>2017-04-29T13:41:28Z</time>
      </trkpt>
      <trkpt lat="50.41169" lon="5.17198">
        <ele>259.12768403228</ele>
        <time>2017-04-29T13:41:32Z</time>
      </trkpt>
      <trkpt lat="50.41164" lon="5.17258">
        <ele>258.85566933253</ele>
        <time>2017-04-29T13:41:37Z</time>
      </trkpt>
      <trkpt lat="50.41171" lon="5.17304">
        <ele>258.33910075224</ele>
        <time>2017-04-29T13:41:41Z</time>
      </trkpt>
      <trkpt lat="50.41182" lon="5.17346">
        <ele>256.34057449167</ele>
        <time>2017-04-29T13:41:45Z</time>
      </trkpt>
      <trkpt lat="50.4119" lon="5.17378">
        <ele>256.45184635471</ele>
        <time>2017-04-29T13:41:49Z</time>
      </trkpt>
      <trkpt lat="50.41195" lon="5.17392">
        <ele>256.45396948194</ele>
        <time>2017-04-29T13:41:54Z</time>
      </trkpt>
      <trkpt lat="50.41193" lon="5.1738">
        <ele>253.60800410169</ele>
        <time>2017-04-29T13:42:15Z</time>
      </trkpt>
      <trkpt lat="50.41189" lon="5.17359">
        <ele>251.44342701697</ele>
        <time>2017-04-29T13:42:19Z</time>
      </trkpt>
      <trkpt lat="50.41196" lon="5.17348">
        <ele>251.22983093227</ele>
        <time>2017-04-29T13:42:23Z</time>
      </trkpt>
      <trkpt lat="50.41209" lon="5.1733">
        <ele>251.95255661775</ele>
        <time>2017-04-29T13:42:28Z</time>
      </trkpt>
      <trkpt lat="50.41217" lon="5.17321">
        <ele>252.02985665093</ele>
        <time>2017-04-29T13:42:32Z</time>
      </trkpt>
      <trkpt lat="50.4121" lon="5.17326">
        <ele>251.48047232296</ele>
        <time>2017-04-29T13:42:36Z</time>
      </trkpt>
      <trkpt lat="50.41194" lon="5.17342">
        <ele>251.55235284815</ele>
        <time>2017-04-29T13:42:40Z</time>
      </trkpt>
      <trkpt lat="50.41181" lon="5.17336">
        <ele>251.30499698868</ele>
        <time>2017-04-29T13:42:44Z</time>
      </trkpt>
      <trkpt lat="50.41172" lon="5.17308">
        <ele>250.25139984385</ele>
        <time>2017-04-29T13:42:48Z</time>
      </trkpt>
      <trkpt lat="50.41162" lon="5.17271">
        <ele>250.07241712447</ele>
        <time>2017-04-29T13:42:52Z</time>
      </trkpt>
      <trkpt lat="50.41161" lon="5.17226">
        <ele>249.69545929487</ele>
        <time>2017-04-29T13:42:57Z</time>
      </trkpt>
      <trkpt lat="50.4117" lon="5.17195">
        <ele>250.53923980573</ele>
        <time>2017-04-29T13:43:01Z</time>
      </trkpt>
      <trkpt lat="50.41181" lon="5.17171">
        <ele>252.23498600372</ele>
        <time>2017-04-29T13:43:05Z</time>
      </trkpt>
      <trkpt lat="50.41202" lon="5.17143">
        <ele>255.07031921244</ele>
        <time>2017-04-29T13:43:10Z</time>
      </trkpt>
      <trkpt lat="50.41219" lon="5.1712">
        <ele>256.54356114728</ele>
        <time>2017-04-29T13:43:14Z</time>
      </trkpt>
      <trkpt lat="50.41238" lon="5.17098">
        <ele>257.26514786669</ele>
        <time>2017-04-29T13:43:18Z</time>
      </trkpt>
      <trkpt lat="50.41261" lon="5.1707">
        <ele>258.96677937926</ele>
        <time>2017-04-29T13:43:23Z</time>
      </trkpt>
      <trkpt lat="50.41279" lon="5.17048">
        <ele>259.91206455652</ele>
        <time>2017-04-29T13:43:27Z</time>
      </trkpt>
      <trkpt lat="50.41301" lon="5.17018">
        <ele>260.72872724874</ele>
        <time>2017-04-29T13:43:32Z</time>
      </trkpt>
      <trkpt lat="50.41317" lon="5.16997">
        <ele>262.43616077823</ele>
        <time>2017-04-29T13:43:36Z</time>
      </trkpt>
      <trkpt lat="50.4134" lon="5.1697">
        <ele>263.80624344442</ele>
        <time>2017-04-29T13:43:41Z</time>
      </trkpt>
      <trkpt lat="50.4136" lon="5.16945">
        <ele>264.2379934383</ele>
        <time>2017-04-29T13:43:46Z</time>
      </trkpt>
      <trkpt lat="50.4138" lon="5.1692">
        <ele>264.3250982022</ele>
        <time>2017-04-29T13:43:51Z</time>
      </trkpt>
      <trkpt lat="50.41395" lon="5.16901">
        <ele>265.32242512514</ele>
        <time>2017-04-29T13:43:55Z</time>
      </trkpt>
      <trkpt lat="50.41414" lon="5.16877">
        <ele>268.10258209676</ele>
        <time>2017-04-29T13:44:00Z</time>
      </trkpt>
      <trkpt lat="50.41432" lon="5.16853">
        <ele>270.72041926417</ele>
        <time>2017-04-29T13:44:05Z</time>
      </trkpt>
      <trkpt lat="50.41448" lon="5.16829">
        <ele>272.02129011384</ele>
        <time>2017-04-29T13:44:10Z</time>
      </trkpt>
      <trkpt lat="50.41465" lon="5.16808">
        <ele>271.95626819935</ele>
        <time>2017-04-29T13:44:14Z</time>
      </trkpt>
      <trkpt lat="50.41482" lon="5.16787">
        <ele>272.86678025458</ele>
        <time>2017-04-29T13:44:18Z</time>
      </trkpt>
      <trkpt lat="50.41503" lon="5.16759">
        <ele>276.04357145106</ele>
        <time>2017-04-29T13:44:23Z</time>
      </trkpt>
      <trkpt lat="50.41522" lon="5.16735">
        <ele>277.71408976821</ele>
        <time>2017-04-29T13:44:28Z</time>
      </trkpt>
      <trkpt lat="50.41535" lon="5.16722">
        <ele>277.83512753631</ele>
        <time>2017-04-29T13:44:33Z</time>
      </trkpt>
      <trkpt lat="50.41552" lon="5.16722">
        <ele>277.61235230415</ele>
        <time>2017-04-29T13:44:38Z</time>
      </trkpt>
      <trkpt lat="50.41571" lon="5.16727">
        <ele>278.63416289415</ele>
        <time>2017-04-29T13:44:42Z</time>
      </trkpt>
      <trkpt lat="50.4159" lon="5.16734">
        <ele>278.78427576626</ele>
        <time>2017-04-29T13:44:46Z</time>
      </trkpt>
      <trkpt lat="50.41616" lon="5.16743">
        <ele>278.27259108965</ele>
        <time>2017-04-29T13:44:51Z</time>
      </trkpt>
      <trkpt lat="50.41635" lon="5.16744">
        <ele>276.73641176983</ele>
        <time>2017-04-29T13:44:55Z</time>
      </trkpt>
      <trkpt lat="50.41654" lon="5.16727">
        <ele>273.87918372922</ele>
        <time>2017-04-29T13:44:59Z</time>
      </trkpt>
      <trkpt lat="50.41673" lon="5.16703">
        <ele>271.06417440089</ele>
        <time>2017-04-29T13:45:03Z</time>
      </trkpt>
      <trkpt lat="50.417" lon="5.16668">
        <ele>266.40318770002</ele>
        <time>2017-04-29T13:45:08Z</time>
      </trkpt>
      <trkpt lat="50.41729" lon="5.16625">
        <ele>259.49001005195</ele>
        <time>2017-04-29T13:45:12Z</time>
      </trkpt>
      <trkpt lat="50.4176" lon="5.1657">
        <ele>256.80343189363</ele>
        <time>2017-04-29T13:45:16Z</time>
      </trkpt>
      <trkpt lat="50.41801" lon="5.16497">
        <ele>254.01382251097</ele>
        <time>2017-04-29T13:45:21Z</time>
      </trkpt>
      <trkpt lat="50.41838" lon="5.16447">
        <ele>251.66829679566</ele>
        <time>2017-04-29T13:45:25Z</time>
      </trkpt>
      <trkpt lat="50.41893" lon="5.16403">
        <ele>246.62270774896</ele>
        <time>2017-04-29T13:45:30Z</time>
      </trkpt>
      <trkpt lat="50.41935" lon="5.1637">
        <ele>245.4525830185</ele>
        <time>2017-04-29T13:45:34Z</time>
      </trkpt>
      <trkpt lat="50.41985" lon="5.16331">
        <ele>242.43365494845</ele>
        <time>2017-04-29T13:45:39Z</time>
      </trkpt>
      <trkpt lat="50.42028" lon="5.16301">
        <ele>239.61146183656</ele>
        <time>2017-04-29T13:45:44Z</time>
      </trkpt>
      <trkpt lat="50.4206" lon="5.16274">
        <ele>239.6426009739</ele>
        <time>2017-04-29T13:45:48Z</time>
      </trkpt>
      <trkpt lat="50.42092" lon="5.16247">
        <ele>239.288833144</ele>
        <time>2017-04-29T13:45:52Z</time>
      </trkpt>
      <trkpt lat="50.42128" lon="5.16218">
        <ele>240.16707473797</ele>
        <time>2017-04-29T13:45:57Z</time>
      </trkpt>
      <trkpt lat="50.4216" lon="5.1619">
        <ele>241.84998497532</ele>
        <time>2017-04-29T13:46:02Z</time>
      </trkpt>
      <trkpt lat="50.42185" lon="5.16167">
        <ele>241.03329768523</ele>
        <time>2017-04-29T13:46:06Z</time>
      </trkpt>
      <trkpt lat="50.42208" lon="5.16146">
        <ele>239.81888830445</ele>
        <time>2017-04-29T13:46:10Z</time>
      </trkpt>
      <trkpt lat="50.42237" lon="5.16118">
        <ele>241.18582119015</ele>
        <time>2017-04-29T13:46:15Z</time>
      </trkpt>
      <trkpt lat="50.42263" lon="5.16093">
        <ele>240.70971166144</ele>
        <time>2017-04-29T13:46:20Z</time>
      </trkpt>
      <trkpt lat="50.42283" lon="5.16071">
        <ele>240.1907147129</ele>
        <time>2017-04-29T13:46:24Z</time>
      </trkpt>
      <trkpt lat="50.42312" lon="5.16042">
        <ele>239.6708378774</ele>
        <time>2017-04-29T13:46:29Z</time>
      </trkpt>
      <trkpt lat="50.42344" lon="5.16014">
        <ele>240.36848750604</ele>
        <time>2017-04-29T13:46:34Z</time>
      </trkpt>
      <trkpt lat="50.42377" lon="5.1599">
        <ele>240.65013266445</ele>
        <time>2017-04-29T13:46:39Z</time>
      </trkpt>
      <trkpt lat="50.42402" lon="5.15972">
        <ele>240.22324488918</ele>
        <time>2017-04-29T13:46:43Z</time>
      </trkpt>
      <trkpt lat="50.42433" lon="5.15951">
        <ele>240.61195563823</ele>
        <time>2017-04-29T13:46:48Z</time>
      </trkpt>
      <trkpt lat="50.42458" lon="5.15932">
        <ele>240.15139264135</ele>
        <time>2017-04-29T13:46:52Z</time>
      </trkpt>
      <trkpt lat="50.42487" lon="5.15909">
        <ele>237.87561447184</ele>
        <time>2017-04-29T13:46:56Z</time>
      </trkpt>
      <trkpt lat="50.4253" lon="5.15883">
        <ele>232.35321032173</ele>
        <time>2017-04-29T13:47:01Z</time>
      </trkpt>
      <trkpt lat="50.42568" lon="5.15865">
        <ele>229.15903738225</ele>
        <time>2017-04-29T13:47:05Z</time>
      </trkpt>
      <trkpt lat="50.42607" lon="5.15849">
        <ele>227.41363467265</ele>
        <time>2017-04-29T13:47:09Z</time>
      </trkpt>
      <trkpt lat="50.42649" lon="5.15837">
        <ele>226.54542222991</ele>
        <time>2017-04-29T13:47:14Z</time>
      </trkpt>
      <trkpt lat="50.42682" lon="5.15834">
        <ele>224.65203954471</ele>
        <time>2017-04-29T13:47:18Z</time>
      </trkpt>
      <trkpt lat="50.42716" lon="5.15821">
        <ele>224.27501215246</ele>
        <time>2017-04-29T13:47:23Z</time>
      </trkpt>
      <trkpt lat="50.42743" lon="5.15793">
        <ele>223.80916351266</ele>
        <time>2017-04-29T13:47:28Z</time>
      </trkpt>
      <trkpt lat="50.42767" lon="5.15784">
        <ele>223.24012716411</ele>
        <time>2017-04-29T13:47:32Z</time>
      </trkpt>
      <trkpt lat="50.42797" lon="5.1579">
        <ele>221.92295645281</ele>
        <time>2017-04-29T13:47:36Z</time>
      </trkpt>
      <trkpt lat="50.4283" lon="5.15801">
        <ele>222.98274450699</ele>
        <time>2017-04-29T13:47:41Z</time>
      </trkpt>
      <trkpt lat="50.42861" lon="5.15804">
        <ele>225.13547084166</ele>
        <time>2017-04-29T13:47:46Z</time>
      </trkpt>
      <trkpt lat="50.42893" lon="5.15808">
        <ele>226.51012391383</ele>
        <time>2017-04-29T13:47:51Z</time>
      </trkpt>
      <trkpt lat="50.42917" lon="5.15815">
        <ele>227.87710257202</ele>
        <time>2017-04-29T13:47:55Z</time>
      </trkpt>
      <trkpt lat="50.4294" lon="5.15822">
        <ele>229.67012716559</ele>
        <time>2017-04-29T13:47:59Z</time>
      </trkpt>
      <trkpt lat="50.42971" lon="5.1582">
        <ele>232.76246934542</ele>
        <time>2017-04-29T13:48:04Z</time>
      </trkpt>
      <trkpt lat="50.43001" lon="5.15814">
        <ele>232.07866474597</ele>
        <time>2017-04-29T13:48:09Z</time>
      </trkpt>
      <trkpt lat="50.43028" lon="5.15811">
        <ele>231.75417501399</ele>
        <time>2017-04-29T13:48:13Z</time>
      </trkpt>
      <trkpt lat="50.4305" lon="5.1581">
        <ele>231.56556404389</ele>
        <time>2017-04-29T13:48:17Z</time>
      </trkpt>
      <trkpt lat="50.43079" lon="5.15808">
        <ele>232.75896789288</ele>
        <time>2017-04-29T13:48:22Z</time>
      </trkpt>
      <trkpt lat="50.431" lon="5.15802">
        <ele>232.4724302314</ele>
        <time>2017-04-29T13:48:26Z</time>
      </trkpt>
      <trkpt lat="50.43121" lon="5.15795">
        <ele>232.92780571417</ele>
        <time>2017-04-29T13:48:30Z</time>
      </trkpt>
      <trkpt lat="50.43144" lon="5.15792">
        <ele>233.45114913193</ele>
        <time>2017-04-29T13:48:34Z</time>
      </trkpt>
      <trkpt lat="50.43166" lon="5.15786">
        <ele>234.18665639835</ele>
        <time>2017-04-29T13:48:38Z</time>
      </trkpt>
      <trkpt lat="50.43194" lon="5.15773">
        <ele>234.69235914345</ele>
        <time>2017-04-29T13:48:43Z</time>
      </trkpt>
      <trkpt lat="50.43214" lon="5.1576">
        <ele>235.69796302604</ele>
        <time>2017-04-29T13:48:47Z</time>
      </trkpt>
      <trkpt lat="50.43234" lon="5.15748">
        <ele>235.92755834804</ele>
        <time>2017-04-29T13:48:51Z</time>
      </trkpt>
      <trkpt lat="50.43253" lon="5.15733">
        <ele>236.13550425604</ele>
        <time>2017-04-29T13:48:55Z</time>
      </trkpt>
      <trkpt lat="50.43276" lon="5.15718">
        <ele>236.99896208884</ele>
        <time>2017-04-29T13:48:59Z</time>
      </trkpt>
      <trkpt lat="50.43298" lon="5.15702">
        <ele>239.61608020611</ele>
        <time>2017-04-29T13:49:03Z</time>
      </trkpt>
      <trkpt lat="50.43321" lon="5.1568">
        <ele>239.02761788924</ele>
        <time>2017-04-29T13:49:08Z</time>
      </trkpt>
      <trkpt lat="50.43339" lon="5.15664">
        <ele>235.3703836591</ele>
        <time>2017-04-29T13:49:12Z</time>
      </trkpt>
      <trkpt lat="50.43364" lon="5.15645">
        <ele>232.26133203678</ele>
        <time>2017-04-29T13:49:17Z</time>
      </trkpt>
      <trkpt lat="50.43383" lon="5.15635">
        <ele>231.24366024552</ele>
        <time>2017-04-29T13:49:21Z</time>
      </trkpt>
      <trkpt lat="50.43402" lon="5.15626">
        <ele>231.06441271714</ele>
        <time>2017-04-29T13:49:25Z</time>
      </trkpt>
      <trkpt lat="50.43422" lon="5.15614">
        <ele>237.10243161378</ele>
        <time>2017-04-29T13:49:30Z</time>
      </trkpt>
      <trkpt lat="50.43437" lon="5.15605">
        <ele>242.84643115823</ele>
        <time>2017-04-29T13:49:34Z</time>
      </trkpt>
      <trkpt lat="50.43455" lon="5.15595">
        <ele>247.09756744425</ele>
        <time>2017-04-29T13:49:39Z</time>
      </trkpt>
      <trkpt lat="50.4347" lon="5.15589">
        <ele>249.38231295616</ele>
        <time>2017-04-29T13:49:43Z</time>
      </trkpt>
      <trkpt lat="50.43484" lon="5.1558">
        <ele>252.85296810169</ele>
        <time>2017-04-29T13:49:47Z</time>
      </trkpt>
      <trkpt lat="50.43502" lon="5.15576">
        <ele>259.12175594429</ele>
        <time>2017-04-29T13:49:51Z</time>
      </trkpt>
      <trkpt lat="50.43521" lon="5.15572">
        <ele>261.03761065908</ele>
        <time>2017-04-29T13:49:56Z</time>
      </trkpt>
      <trkpt lat="50.43542" lon="5.15566">
        <ele>260.2934828231</ele>
        <time>2017-04-29T13:50:01Z</time>
      </trkpt>
      <trkpt lat="50.43561" lon="5.15557">
        <ele>257.77000884043</ele>
        <time>2017-04-29T13:50:05Z</time>
      </trkpt>
      <trkpt lat="50.43583" lon="5.15546">
        <ele>253.5556793824</ele>
        <time>2017-04-29T13:50:10Z</time>
      </trkpt>
      <trkpt lat="50.4361" lon="5.15535">
        <ele>256.25881116114</ele>
        <time>2017-04-29T13:50:15Z</time>
      </trkpt>
      <trkpt lat="50.43632" lon="5.15524">
        <ele>261.93849081664</ele>
        <time>2017-04-29T13:50:19Z</time>
      </trkpt>
      <trkpt lat="50.43658" lon="5.15512">
        <ele>265.2834375369</ele>
        <time>2017-04-29T13:50:24Z</time>
      </trkpt>
      <trkpt lat="50.43679" lon="5.15506">
        <ele>264.39808202858</ele>
        <time>2017-04-29T13:50:28Z</time>
      </trkpt>
      <trkpt lat="50.43699" lon="5.15501">
        <ele>263.31348743264</ele>
        <time>2017-04-29T13:50:32Z</time>
      </trkpt>
      <trkpt lat="50.43717" lon="5.1551">
        <ele>264.370316334</ele>
        <time>2017-04-29T13:50:36Z</time>
      </trkpt>
      <trkpt lat="50.43735" lon="5.15525">
        <ele>266.41361252756</ele>
        <time>2017-04-29T13:50:40Z</time>
      </trkpt>
      <trkpt lat="50.43758" lon="5.15533">
        <ele>265.13042863545</ele>
        <time>2017-04-29T13:50:45Z</time>
      </trkpt>
      <trkpt lat="50.43776" lon="5.15545">
        <ele>263.49101928825</ele>
        <time>2017-04-29T13:50:50Z</time>
      </trkpt>
      <trkpt lat="50.43785" lon="5.15569">
        <ele>265.76430799262</ele>
        <time>2017-04-29T13:50:54Z</time>
      </trkpt>
      <trkpt lat="50.43799" lon="5.15603">
        <ele>267.01369991497</ele>
        <time>2017-04-29T13:50:59Z</time>
      </trkpt>
      <trkpt lat="50.43812" lon="5.15615">
        <ele>265.45939035328</ele>
        <time>2017-04-29T13:51:03Z</time>
      </trkpt>
      <trkpt lat="50.43842" lon="5.15598">
        <ele>264.13170605988</ele>
        <time>2017-04-29T13:51:08Z</time>
      </trkpt>
      <trkpt lat="50.43868" lon="5.15585">
        <ele>265.69701968211</ele>
        <time>2017-04-29T13:51:12Z</time>
      </trkpt>
      <trkpt lat="50.43902" lon="5.15569">
        <ele>263.35251434335</ele>
        <time>2017-04-29T13:51:17Z</time>
      </trkpt>
      <trkpt lat="50.43928" lon="5.15558">
        <ele>261.0354719158</ele>
        <time>2017-04-29T13:51:21Z</time>
      </trkpt>
      <trkpt lat="50.43956" lon="5.15538">
        <ele>260.51467618832</ele>
        <time>2017-04-29T13:51:25Z</time>
      </trkpt>
      <trkpt lat="50.43979" lon="5.15485">
        <ele>258.65947166337</ele>
        <time>2017-04-29T13:51:30Z</time>
      </trkpt>
      <trkpt lat="50.43997" lon="5.15431">
        <ele>253.72012836841</ele>
        <time>2017-04-29T13:51:34Z</time>
      </trkpt>
      <trkpt lat="50.44023" lon="5.15389">
        <ele>244.14740981655</ele>
        <time>2017-04-29T13:51:38Z</time>
      </trkpt>
      <trkpt lat="50.44068" lon="5.1536">
        <ele>243.95888281511</ele>
        <time>2017-04-29T13:51:43Z</time>
      </trkpt>
      <trkpt lat="50.44093" lon="5.15346">
        <ele>246.69323208378</ele>
        <time>2017-04-29T13:51:47Z</time>
      </trkpt>
      <trkpt lat="50.44102" lon="5.15326">
        <ele>244.99592234417</ele>
        <time>2017-04-29T13:51:51Z</time>
      </trkpt>
      <trkpt lat="50.44091" lon="5.15294">
        <ele>243.24054823619</ele>
        <time>2017-04-29T13:51:55Z</time>
      </trkpt>
      <trkpt lat="50.44072" lon="5.15255">
        <ele>243.64204825295</ele>
        <time>2017-04-29T13:52:00Z</time>
      </trkpt>
      <trkpt lat="50.44056" lon="5.15217">
        <ele>243.80836468986</ele>
        <time>2017-04-29T13:52:04Z</time>
      </trkpt>
      <trkpt lat="50.44064" lon="5.15163">
        <ele>245.36255152794</ele>
        <time>2017-04-29T13:52:09Z</time>
      </trkpt>
      <trkpt lat="50.4407" lon="5.15117">
        <ele>242.44547242744</ele>
        <time>2017-04-29T13:52:14Z</time>
      </trkpt>
      <trkpt lat="50.44062" lon="5.15072">
        <ele>240.51612800922</ele>
        <time>2017-04-29T13:52:18Z</time>
      </trkpt>
      <trkpt lat="50.44049" lon="5.15021">
        <ele>237.03571732654</ele>
        <time>2017-04-29T13:52:23Z</time>
      </trkpt>
      <trkpt lat="50.44041" lon="5.1498">
        <ele>235.50517544444</ele>
        <time>2017-04-29T13:52:27Z</time>
      </trkpt>
      <trkpt lat="50.44052" lon="5.14944">
        <ele>238.1301646843</ele>
        <time>2017-04-29T13:52:31Z</time>
      </trkpt>
      <trkpt lat="50.44074" lon="5.14927">
        <ele>242.96339162456</ele>
        <time>2017-04-29T13:52:36Z</time>
      </trkpt>
      <trkpt lat="50.44098" lon="5.14914">
        <ele>238.35716669458</ele>
        <time>2017-04-29T13:52:40Z</time>
      </trkpt>
      <trkpt lat="50.44129" lon="5.14893">
        <ele>228.85515810433</ele>
        <time>2017-04-29T13:52:45Z</time>
      </trkpt>
      <trkpt lat="50.44154" lon="5.14877">
        <ele>225.28275854602</ele>
        <time>2017-04-29T13:52:49Z</time>
      </trkpt>
      <trkpt lat="50.44185" lon="5.14857">
        <ele>225.76247743029</ele>
        <time>2017-04-29T13:52:54Z</time>
      </trkpt>
      <trkpt lat="50.44209" lon="5.14841">
        <ele>227.25009913426</ele>
        <time>2017-04-29T13:52:58Z</time>
      </trkpt>
      <trkpt lat="50.4424" lon="5.14827">
        <ele>231.33632244557</ele>
        <time>2017-04-29T13:53:03Z</time>
      </trkpt>
      <trkpt lat="50.44261" lon="5.1481">
        <ele>234.55763443469</ele>
        <time>2017-04-29T13:53:07Z</time>
      </trkpt>
      <trkpt lat="50.44293" lon="5.14789">
        <ele>234.94602212614</ele>
        <time>2017-04-29T13:53:12Z</time>
      </trkpt>
      <trkpt lat="50.44315" lon="5.14775">
        <ele>234.53224982831</ele>
        <time>2017-04-29T13:53:16Z</time>
      </trkpt>
      <trkpt lat="50.44335" lon="5.14758">
        <ele>233.82897048345</ele>
        <time>2017-04-29T13:53:20Z</time>
      </trkpt>
      <trkpt lat="50.44362" lon="5.14733">
        <ele>234.13038024481</ele>
        <time>2017-04-29T13:53:25Z</time>
      </trkpt>
      <trkpt lat="50.44382" lon="5.14713">
        <ele>234.00653547221</ele>
        <time>2017-04-29T13:53:29Z</time>
      </trkpt>
      <trkpt lat="50.444" lon="5.14696">
        <ele>233.53573613784</ele>
        <time>2017-04-29T13:53:33Z</time>
      </trkpt>
      <trkpt lat="50.44414" lon="5.14679">
        <ele>232.10364866813</ele>
        <time>2017-04-29T13:53:37Z</time>
      </trkpt>
      <trkpt lat="50.44427" lon="5.14665">
        <ele>232.35852418949</ele>
        <time>2017-04-29T13:53:41Z</time>
      </trkpt>
      <trkpt lat="50.44444" lon="5.14653">
        <ele>232.38256404362</ele>
        <time>2017-04-29T13:53:45Z</time>
      </trkpt>
      <trkpt lat="50.44467" lon="5.14642">
        <ele>234.84389278376</ele>
        <time>2017-04-29T13:53:50Z</time>
      </trkpt>
      <trkpt lat="50.44486" lon="5.14634">
        <ele>241.29430045821</ele>
        <time>2017-04-29T13:53:54Z</time>
      </trkpt>
      <trkpt lat="50.44512" lon="5.14627">
        <ele>247.58855184418</ele>
        <time>2017-04-29T13:53:58Z</time>
      </trkpt>
      <trkpt lat="50.44533" lon="5.14619">
        <ele>252.75440317578</ele>
        <time>2017-04-29T13:54:02Z</time>
      </trkpt>
      <trkpt lat="50.44544" lon="5.14607">
        <ele>253.42220424647</ele>
        <time>2017-04-29T13:54:07Z</time>
      </trkpt>
      <trkpt lat="50.44544" lon="5.14576">
        <ele>252.88816391231</ele>
        <time>2017-04-29T13:54:12Z</time>
      </trkpt>
      <trkpt lat="50.44554" lon="5.14543">
        <ele>246.92784121195</ele>
        <time>2017-04-29T13:54:16Z</time>
      </trkpt>
      <trkpt lat="50.44568" lon="5.14509">
        <ele>242.29192348988</ele>
        <time>2017-04-29T13:54:20Z</time>
      </trkpt>
      <trkpt lat="50.44584" lon="5.14476">
        <ele>239.7055831787</ele>
        <time>2017-04-29T13:54:24Z</time>
      </trkpt>
      <trkpt lat="50.44601" lon="5.14432">
        <ele>239.80169644811</ele>
        <time>2017-04-29T13:54:29Z</time>
      </trkpt>
      <trkpt lat="50.44614" lon="5.14399">
        <ele>242.36862971547</ele>
        <time>2017-04-29T13:54:33Z</time>
      </trkpt>
      <trkpt lat="50.44631" lon="5.14358">
        <ele>242.955343172</ele>
        <time>2017-04-29T13:54:38Z</time>
      </trkpt>
      <trkpt lat="50.4465" lon="5.14321">
        <ele>237.76731979053</ele>
        <time>2017-04-29T13:54:43Z</time>
      </trkpt>
      <trkpt lat="50.44663" lon="5.14293">
        <ele>235.15240921886</ele>
        <time>2017-04-29T13:54:47Z</time>
      </trkpt>
      <trkpt lat="50.44678" lon="5.14253">
        <ele>230.75408938719</ele>
        <time>2017-04-29T13:54:52Z</time>
      </trkpt>
      <trkpt lat="50.44693" lon="5.14224">
        <ele>229.68088032552</ele>
        <time>2017-04-29T13:54:56Z</time>
      </trkpt>
      <trkpt lat="50.44708" lon="5.14193">
        <ele>233.69131330689</ele>
        <time>2017-04-29T13:55:00Z</time>
      </trkpt>
      <trkpt lat="50.44721" lon="5.14165">
        <ele>236.84545219029</ele>
        <time>2017-04-29T13:55:04Z</time>
      </trkpt>
      <trkpt lat="50.44734" lon="5.14137">
        <ele>241.2264534963</ele>
        <time>2017-04-29T13:55:08Z</time>
      </trkpt>
      <trkpt lat="50.44746" lon="5.14097">
        <ele>240.16224390671</ele>
        <time>2017-04-29T13:55:13Z</time>
      </trkpt>
      <trkpt lat="50.44755" lon="5.14069">
        <ele>236.40335310686</ele>
        <time>2017-04-29T13:55:17Z</time>
      </trkpt>
      <trkpt lat="50.4477" lon="5.14041">
        <ele>236.69117555391</ele>
        <time>2017-04-29T13:55:21Z</time>
      </trkpt>
      <trkpt lat="50.44782" lon="5.14012">
        <ele>239.41495509319</ele>
        <time>2017-04-29T13:55:25Z</time>
      </trkpt>
      <trkpt lat="50.44794" lon="5.13975">
        <ele>245.29992061351</ele>
        <time>2017-04-29T13:55:30Z</time>
      </trkpt>
      <trkpt lat="50.44804" lon="5.13935">
        <ele>244.96578458487</ele>
        <time>2017-04-29T13:55:35Z</time>
      </trkpt>
      <trkpt lat="50.44818" lon="5.13903">
        <ele>244.84285229269</ele>
        <time>2017-04-29T13:55:39Z</time>
      </trkpt>
      <trkpt lat="50.44832" lon="5.13872">
        <ele>249.80630632754</ele>
        <time>2017-04-29T13:55:44Z</time>
      </trkpt>
      <trkpt lat="50.44847" lon="5.13847">
        <ele>252.96233316174</ele>
        <time>2017-04-29T13:55:48Z</time>
      </trkpt>
      <trkpt lat="50.44858" lon="5.13816">
        <ele>254.72138101525</ele>
        <time>2017-04-29T13:55:52Z</time>
      </trkpt>
      <trkpt lat="50.44874" lon="5.13782">
        <ele>254.52886244583</ele>
        <time>2017-04-29T13:55:56Z</time>
      </trkpt>
      <trkpt lat="50.44891" lon="5.13737">
        <ele>255.23160726015</ele>
        <time>2017-04-29T13:56:01Z</time>
      </trkpt>
      <trkpt lat="50.44918" lon="5.13688">
        <ele>258.33109326686</ele>
        <time>2017-04-29T13:56:06Z</time>
      </trkpt>
      <trkpt lat="50.44938" lon="5.13663">
        <ele>259.91181782689</ele>
        <time>2017-04-29T13:56:10Z</time>
      </trkpt>
      <trkpt lat="50.44962" lon="5.13631">
        <ele>256.70263293116</ele>
        <time>2017-04-29T13:56:15Z</time>
      </trkpt>
      <trkpt lat="50.44985" lon="5.13597">
        <ele>248.62526930346</ele>
        <time>2017-04-29T13:56:20Z</time>
      </trkpt>
      <trkpt lat="50.45006" lon="5.13571">
        <ele>245.35493043983</ele>
        <time>2017-04-29T13:56:24Z</time>
      </trkpt>
      <trkpt lat="50.45028" lon="5.13547">
        <ele>243.37846965981</ele>
        <time>2017-04-29T13:56:28Z</time>
      </trkpt>
      <trkpt lat="50.45051" lon="5.13526">
        <ele>243.14575096517</ele>
        <time>2017-04-29T13:56:32Z</time>
      </trkpt>
      <trkpt lat="50.45083" lon="5.13496">
        <ele>245.81513752585</ele>
        <time>2017-04-29T13:56:37Z</time>
      </trkpt>
      <trkpt lat="50.45107" lon="5.13464">
        <ele>247.29277945144</ele>
        <time>2017-04-29T13:56:41Z</time>
      </trkpt>
      <trkpt lat="50.45135" lon="5.13428">
        <ele>252.36895953159</ele>
        <time>2017-04-29T13:56:46Z</time>
      </trkpt>
      <trkpt lat="50.45157" lon="5.134">
        <ele>254.61089679854</ele>
        <time>2017-04-29T13:56:50Z</time>
      </trkpt>
      <trkpt lat="50.45188" lon="5.13366">
        <ele>252.13445570748</ele>
        <time>2017-04-29T13:56:55Z</time>
      </trkpt>
      <trkpt lat="50.45211" lon="5.1334">
        <ele>250.07243302962</ele>
        <time>2017-04-29T13:56:59Z</time>
      </trkpt>
      <trkpt lat="50.45238" lon="5.13305">
        <ele>250.08948535026</ele>
        <time>2017-04-29T13:57:04Z</time>
      </trkpt>
      <trkpt lat="50.45262" lon="5.1328">
        <ele>249.80664509503</ele>
        <time>2017-04-29T13:57:08Z</time>
      </trkpt>
      <trkpt lat="50.4529" lon="5.13259">
        <ele>250.41282263237</ele>
        <time>2017-04-29T13:57:12Z</time>
      </trkpt>
      <trkpt lat="50.45315" lon="5.1324">
        <ele>250.36698917436</ele>
        <time>2017-04-29T13:57:16Z</time>
      </trkpt>
      <trkpt lat="50.45344" lon="5.13217">
        <ele>249.3695939434</ele>
        <time>2017-04-29T13:57:21Z</time>
      </trkpt>
      <trkpt lat="50.45368" lon="5.13195">
        <ele>246.4090184992</ele>
        <time>2017-04-29T13:57:25Z</time>
      </trkpt>
      <trkpt lat="50.45393" lon="5.1317">
        <ele>242.46983256184</ele>
        <time>2017-04-29T13:57:29Z</time>
      </trkpt>
      <trkpt lat="50.4542" lon="5.13146">
        <ele>239.81984898645</ele>
        <time>2017-04-29T13:57:33Z</time>
      </trkpt>
      <trkpt lat="50.45451" lon="5.13123">
        <ele>240.6868721313</ele>
        <time>2017-04-29T13:57:37Z</time>
      </trkpt>
      <trkpt lat="50.45495" lon="5.13092">
        <ele>243.64475277725</ele>
        <time>2017-04-29T13:57:42Z</time>
      </trkpt>
      <trkpt lat="50.45526" lon="5.13061">
        <ele>246.95104968328</ele>
        <time>2017-04-29T13:57:46Z</time>
      </trkpt>
      <trkpt lat="50.45563" lon="5.13024">
        <ele>250.66300981915</ele>
        <time>2017-04-29T13:57:51Z</time>
      </trkpt>
      <trkpt lat="50.45595" lon="5.13011">
        <ele>250.8862095283</ele>
        <time>2017-04-29T13:57:55Z</time>
      </trkpt>
      <trkpt lat="50.45634" lon="5.13013">
        <ele>247.51810289694</ele>
        <time>2017-04-29T13:57:59Z</time>
      </trkpt>
      <trkpt lat="50.45676" lon="5.13018">
        <ele>237.84441631788</ele>
        <time>2017-04-29T13:58:03Z</time>
      </trkpt>
      <trkpt lat="50.4571" lon="5.13019">
        <ele>233.54347869247</ele>
        <time>2017-04-29T13:58:07Z</time>
      </trkpt>
      <trkpt lat="50.45754" lon="5.13024">
        <ele>236.4101298315</ele>
        <time>2017-04-29T13:58:12Z</time>
      </trkpt>
      <trkpt lat="50.45794" lon="5.13024">
        <ele>239.52033239757</ele>
        <time>2017-04-29T13:58:17Z</time>
      </trkpt>
      <trkpt lat="50.45824" lon="5.13009">
        <ele>239.04359467491</ele>
        <time>2017-04-29T13:58:21Z</time>
      </trkpt>
      <trkpt lat="50.45858" lon="5.12992">
        <ele>236.64730487957</ele>
        <time>2017-04-29T13:58:25Z</time>
      </trkpt>
      <trkpt lat="50.45887" lon="5.1298">
        <ele>234.24324206771</ele>
        <time>2017-04-29T13:58:29Z</time>
      </trkpt>
      <trkpt lat="50.45904" lon="5.12971">
        <ele>230.34434403031</ele>
        <time>2017-04-29T13:58:34Z</time>
      </trkpt>
      <trkpt lat="50.4591" lon="5.12968">
        <ele>228.67759622481</ele>
        <time>2017-04-29T13:59:03Z</time>
      </trkpt>
      <trkpt lat="50.45932" lon="5.12951">
        <ele>222.67714962172</ele>
        <time>2017-04-29T13:59:08Z</time>
      </trkpt>
      <trkpt lat="50.4596" lon="5.12921">
        <ele>215.75456458774</ele>
        <time>2017-04-29T13:59:12Z</time>
      </trkpt>
      <trkpt lat="50.45986" lon="5.12887">
        <ele>209.13940617437</ele>
        <time>2017-04-29T13:59:16Z</time>
      </trkpt>
      <trkpt lat="50.46025" lon="5.1285">
        <ele>210.50593744735</ele>
        <time>2017-04-29T13:59:21Z</time>
      </trkpt>
      <trkpt lat="50.46053" lon="5.1282">
        <ele>210.13439733751</ele>
        <time>2017-04-29T13:59:25Z</time>
      </trkpt>
      <trkpt lat="50.46086" lon="5.12793">
        <ele>205.48773906087</ele>
        <time>2017-04-29T13:59:29Z</time>
      </trkpt>
      <trkpt lat="50.46123" lon="5.12753">
        <ele>201.13989468741</ele>
        <time>2017-04-29T13:59:34Z</time>
      </trkpt>
      <trkpt lat="50.46151" lon="5.12721">
        <ele>199.11226668532</ele>
        <time>2017-04-29T13:59:38Z</time>
      </trkpt>
      <trkpt lat="50.46187" lon="5.12678">
        <ele>195.06949234687</ele>
        <time>2017-04-29T13:59:43Z</time>
      </trkpt>
      <trkpt lat="50.46222" lon="5.1264">
        <ele>191.35817811096</ele>
        <time>2017-04-29T13:59:48Z</time>
      </trkpt>
      <trkpt lat="50.46254" lon="5.12606">
        <ele>189.00394660208</ele>
        <time>2017-04-29T13:59:52Z</time>
      </trkpt>
      <trkpt lat="50.46285" lon="5.12576">
        <ele>184.27773760483</ele>
        <time>2017-04-29T13:59:56Z</time>
      </trkpt>
      <trkpt lat="50.46321" lon="5.12538">
        <ele>178.67186883037</ele>
        <time>2017-04-29T14:00:01Z</time>
      </trkpt>
      <trkpt lat="50.46349" lon="5.12489">
        <ele>180.84583769351</ele>
        <time>2017-04-29T14:00:06Z</time>
      </trkpt>
      <trkpt lat="50.46371" lon="5.12444">
        <ele>182.77071821419</ele>
        <time>2017-04-29T14:00:10Z</time>
      </trkpt>
      <trkpt lat="50.46401" lon="5.12404">
        <ele>179.312450452</ele>
        <time>2017-04-29T14:00:14Z</time>
      </trkpt>
      <trkpt lat="50.4643" lon="5.12374">
        <ele>175.59725027057</ele>
        <time>2017-04-29T14:00:18Z</time>
      </trkpt>
      <trkpt lat="50.46461" lon="5.12345">
        <ele>170.10946374189</ele>
        <time>2017-04-29T14:00:22Z</time>
      </trkpt>
      <trkpt lat="50.46487" lon="5.12307">
        <ele>167.31061018851</ele>
        <time>2017-04-29T14:00:27Z</time>
      </trkpt>
      <trkpt lat="50.4651" lon="5.12299">
        <ele>172.44545113767</ele>
        <time>2017-04-29T14:00:31Z</time>
      </trkpt>
      <trkpt lat="50.46539" lon="5.12306">
        <ele>176.15771242082</ele>
        <time>2017-04-29T14:00:35Z</time>
      </trkpt>
      <trkpt lat="50.46573" lon="5.1232">
        <ele>179.97618313169</ele>
        <time>2017-04-29T14:00:40Z</time>
      </trkpt>
      <trkpt lat="50.46601" lon="5.12339">
        <ele>179.19189864003</ele>
        <time>2017-04-29T14:00:44Z</time>
      </trkpt>
      <trkpt lat="50.46632" lon="5.12366">
        <ele>177.30735105939</ele>
        <time>2017-04-29T14:00:49Z</time>
      </trkpt>
      <trkpt lat="50.4666" lon="5.12389">
        <ele>174.73643873065</ele>
        <time>2017-04-29T14:00:53Z</time>
      </trkpt>
      <trkpt lat="50.4669" lon="5.12408">
        <ele>172.59729784469</ele>
        <time>2017-04-29T14:00:57Z</time>
      </trkpt>
      <trkpt lat="50.46719" lon="5.12429">
        <ele>169.00563018365</ele>
        <time>2017-04-29T14:01:01Z</time>
      </trkpt>
      <trkpt lat="50.46744" lon="5.12457">
        <ele>166.28292477406</ele>
        <time>2017-04-29T14:01:05Z</time>
      </trkpt>
      <trkpt lat="50.46771" lon="5.12486">
        <ele>161.95285010855</ele>
        <time>2017-04-29T14:01:10Z</time>
      </trkpt>
      <trkpt lat="50.46797" lon="5.12506">
        <ele>163.18029853543</ele>
        <time>2017-04-29T14:01:14Z</time>
      </trkpt>
      <trkpt lat="50.4683" lon="5.1253">
        <ele>166.07124662533</ele>
        <time>2017-04-29T14:01:19Z</time>
      </trkpt>
      <trkpt lat="50.46857" lon="5.12546">
        <ele>165.30299519847</ele>
        <time>2017-04-29T14:01:23Z</time>
      </trkpt>
      <trkpt lat="50.469" lon="5.12549">
        <ele>161.69715339261</ele>
        <time>2017-04-29T14:01:28Z</time>
      </trkpt>
      <trkpt lat="50.46932" lon="5.12542">
        <ele>158.46394398243</ele>
        <time>2017-04-29T14:01:32Z</time>
      </trkpt>
      <trkpt lat="50.46973" lon="5.12527">
        <ele>155.47063447122</ele>
        <time>2017-04-29T14:01:37Z</time>
      </trkpt>
      <trkpt lat="50.47009" lon="5.12518">
        <ele>154.83893239978</ele>
        <time>2017-04-29T14:01:41Z</time>
      </trkpt>
      <trkpt lat="50.47052" lon="5.12498">
        <ele>151.95582552935</ele>
        <time>2017-04-29T14:01:46Z</time>
      </trkpt>
      <trkpt lat="50.47092" lon="5.12477">
        <ele>149.8831587271</ele>
        <time>2017-04-29T14:01:51Z</time>
      </trkpt>
      <trkpt lat="50.47123" lon="5.12468">
        <ele>150.4984314001</ele>
        <time>2017-04-29T14:01:55Z</time>
      </trkpt>
      <trkpt lat="50.47149" lon="5.12459">
        <ele>151.05262630207</ele>
        <time>2017-04-29T14:01:59Z</time>
      </trkpt>
      <trkpt lat="50.47173" lon="5.12433">
        <ele>147.69132005043</ele>
        <time>2017-04-29T14:02:03Z</time>
      </trkpt>
      <trkpt lat="50.47181" lon="5.12427">
        <ele>145.79943901551</ele>
        <time>2017-04-29T14:02:20Z</time>
      </trkpt>
      <trkpt lat="50.47194" lon="5.12407">
        <ele>142.75476482234</ele>
        <time>2017-04-29T14:02:25Z</time>
      </trkpt>
      <trkpt lat="50.47209" lon="5.12381">
        <ele>141.30229104911</ele>
        <time>2017-04-29T14:02:29Z</time>
      </trkpt>
      <trkpt lat="50.47228" lon="5.12351">
        <ele>137.62507593579</ele>
        <time>2017-04-29T14:02:33Z</time>
      </trkpt>
      <trkpt lat="50.47252" lon="5.12298">
        <ele>131.46634226984</ele>
        <time>2017-04-29T14:02:38Z</time>
      </trkpt>
      <trkpt lat="50.47272" lon="5.12266">
        <ele>130.14142350022</ele>
        <time>2017-04-29T14:02:42Z</time>
      </trkpt>
      <trkpt lat="50.47297" lon="5.12237">
        <ele>131.05260174259</ele>
        <time>2017-04-29T14:02:46Z</time>
      </trkpt>
      <trkpt lat="50.47326" lon="5.12197">
        <ele>133.79248959397</ele>
        <time>2017-04-29T14:02:50Z</time>
      </trkpt>
      <trkpt lat="50.47361" lon="5.1215">
        <ele>138.44479834724</ele>
        <time>2017-04-29T14:02:55Z</time>
      </trkpt>
      <trkpt lat="50.47385" lon="5.1211">
        <ele>139.73278903899</ele>
        <time>2017-04-29T14:02:59Z</time>
      </trkpt>
      <trkpt lat="50.474" lon="5.12072">
        <ele>140.20822581709</ele>
        <time>2017-04-29T14:03:03Z</time>
      </trkpt>
      <trkpt lat="50.4741" lon="5.12018">
        <ele>137.82669864015</ele>
        <time>2017-04-29T14:03:08Z</time>
      </trkpt>
      <trkpt lat="50.4742" lon="5.11974">
        <ele>136.0047396861</ele>
        <time>2017-04-29T14:03:13Z</time>
      </trkpt>
      <trkpt lat="50.47429" lon="5.11937">
        <ele>133.79006239385</ele>
        <time>2017-04-29T14:03:17Z</time>
      </trkpt>
      <trkpt lat="50.47443" lon="5.11904">
        <ele>130.30650718142</ele>
        <time>2017-04-29T14:03:21Z</time>
      </trkpt>
      <trkpt lat="50.4747" lon="5.11864">
        <ele>121.12899140521</ele>
        <time>2017-04-29T14:03:26Z</time>
      </trkpt>
      <trkpt lat="50.47495" lon="5.11845">
        <ele>119.16446341148</ele>
        <time>2017-04-29T14:03:30Z</time>
      </trkpt>
      <trkpt lat="50.47524" lon="5.11852">
        <ele>119.7105144448</ele>
        <time>2017-04-29T14:03:34Z</time>
      </trkpt>
      <trkpt lat="50.47554" lon="5.11869">
        <ele>120.39299447061</ele>
        <time>2017-04-29T14:03:38Z</time>
      </trkpt>
      <trkpt lat="50.47585" lon="5.11876">
        <ele>122.99921851185</ele>
        <time>2017-04-29T14:03:42Z</time>
      </trkpt>
      <trkpt lat="50.47618" lon="5.1187">
        <ele>125.87652495558</ele>
        <time>2017-04-29T14:03:46Z</time>
      </trkpt>
      <trkpt lat="50.4766" lon="5.1186">
        <ele>129.45893171474</ele>
        <time>2017-04-29T14:03:51Z</time>
      </trkpt>
      <trkpt lat="50.47704" lon="5.11849">
        <ele>131.29879162439</ele>
        <time>2017-04-29T14:03:56Z</time>
      </trkpt>
      <trkpt lat="50.47738" lon="5.11824">
        <ele>132.81635789471</ele>
        <time>2017-04-29T14:04:00Z</time>
      </trkpt>
      <trkpt lat="50.47767" lon="5.11763">
        <ele>129.98933319839</ele>
        <time>2017-04-29T14:04:05Z</time>
      </trkpt>
      <trkpt lat="50.47786" lon="5.11719">
        <ele>124.87699380976</ele>
        <time>2017-04-29T14:04:09Z</time>
      </trkpt>
      <trkpt lat="50.47804" lon="5.11674">
        <ele>118.3267690503</ele>
        <time>2017-04-29T14:04:13Z</time>
      </trkpt>
      <trkpt lat="50.47823" lon="5.11622">
        <ele>109.86922374983</ele>
        <time>2017-04-29T14:04:18Z</time>
      </trkpt>
      <trkpt lat="50.47835" lon="5.11584">
        <ele>104.20002920555</ele>
        <time>2017-04-29T14:04:22Z</time>
      </trkpt>
      <trkpt lat="50.47851" lon="5.11543">
        <ele>103.5060125875</ele>
        <time>2017-04-29T14:04:27Z</time>
      </trkpt>
      <trkpt lat="50.47872" lon="5.11506">
        <ele>100.68620981034</ele>
        <time>2017-04-29T14:04:32Z</time>
      </trkpt>
      <trkpt lat="50.47904" lon="5.1149">
        <ele>99.444955023073</ele>
        <time>2017-04-29T14:04:37Z</time>
      </trkpt>
      <trkpt lat="50.47928" lon="5.11484">
        <ele>101.01103988605</ele>
        <time>2017-04-29T14:04:41Z</time>
      </trkpt>
      <trkpt lat="50.47958" lon="5.11473">
        <ele>97.761833765816</ele>
        <time>2017-04-29T14:04:46Z</time>
      </trkpt>
      <trkpt lat="50.47993" lon="5.11456">
        <ele>92.846631754311</ele>
        <time>2017-04-29T14:04:50Z</time>
      </trkpt>
      <trkpt lat="50.48024" lon="5.11443">
        <ele>93.937659196706</ele>
        <time>2017-04-29T14:04:54Z</time>
      </trkpt>
      <trkpt lat="50.48054" lon="5.11425">
        <ele>92.324779333361</ele>
        <time>2017-04-29T14:04:59Z</time>
      </trkpt>
      <trkpt lat="50.48082" lon="5.11405">
        <ele>95.210587546716</ele>
        <time>2017-04-29T14:05:03Z</time>
      </trkpt>
      <trkpt lat="50.48121" lon="5.1138">
        <ele>101.31576977086</ele>
        <time>2017-04-29T14:05:08Z</time>
      </trkpt>
      <trkpt lat="50.48149" lon="5.11356">
        <ele>105.63223994397</ele>
        <time>2017-04-29T14:05:12Z</time>
      </trkpt>
      <trkpt lat="50.48184" lon="5.11326">
        <ele>106.53772864156</ele>
        <time>2017-04-29T14:05:17Z</time>
      </trkpt>
      <trkpt lat="50.48211" lon="5.11306">
        <ele>103.67709880092</ele>
        <time>2017-04-29T14:05:21Z</time>
      </trkpt>
      <trkpt lat="50.48221" lon="5.11302">
        <ele>103.33505789972</ele>
        <time>2017-04-29T14:05:26Z</time>
      </trkpt>
      <trkpt lat="50.4823" lon="5.11305">
        <ele>106.13855629837</ele>
        <time>2017-04-29T14:06:11Z</time>
      </trkpt>
      <trkpt lat="50.48249" lon="5.11315">
        <ele>110.09840701322</ele>
        <time>2017-04-29T14:06:15Z</time>
      </trkpt>
      <trkpt lat="50.48271" lon="5.11334">
        <ele>111.81729651171</ele>
        <time>2017-04-29T14:06:19Z</time>
      </trkpt>
      <trkpt lat="50.48298" lon="5.11355">
        <ele>111.77333195025</ele>
        <time>2017-04-29T14:06:24Z</time>
      </trkpt>
      <trkpt lat="50.48326" lon="5.11375">
        <ele>110.99581539577</ele>
        <time>2017-04-29T14:06:28Z</time>
      </trkpt>
      <trkpt lat="50.48355" lon="5.11398">
        <ele>108.22081344164</ele>
        <time>2017-04-29T14:06:32Z</time>
      </trkpt>
      <trkpt lat="50.48391" lon="5.11427">
        <ele>103.03522532212</ele>
        <time>2017-04-29T14:06:37Z</time>
      </trkpt>
      <trkpt lat="50.48415" lon="5.11446">
        <ele>102.51929749582</ele>
        <time>2017-04-29T14:06:41Z</time>
      </trkpt>
      <trkpt lat="50.48447" lon="5.11472">
        <ele>101.72339604067</ele>
        <time>2017-04-29T14:06:46Z</time>
      </trkpt>
      <trkpt lat="50.48482" lon="5.11495">
        <ele>102.37141548977</ele>
        <time>2017-04-29T14:06:51Z</time>
      </trkpt>
      <trkpt lat="50.48508" lon="5.11491">
        <ele>98.498180521082</ele>
        <time>2017-04-29T14:06:55Z</time>
      </trkpt>
      <trkpt lat="50.48535" lon="5.11477">
        <ele>96.416525775775</ele>
        <time>2017-04-29T14:06:59Z</time>
      </trkpt>
      <trkpt lat="50.48564" lon="5.11468">
        <ele>96.600082481721</ele>
        <time>2017-04-29T14:07:03Z</time>
      </trkpt>
      <trkpt lat="50.48604" lon="5.11464">
        <ele>98.27957029322</ele>
        <time>2017-04-29T14:07:08Z</time>
      </trkpt>
      <trkpt lat="50.48646" lon="5.11464">
        <ele>99.332254808011</ele>
        <time>2017-04-29T14:07:13Z</time>
      </trkpt>
      <trkpt lat="50.48685" lon="5.11463">
        <ele>96.010472400866</ele>
        <time>2017-04-29T14:07:18Z</time>
      </trkpt>
      <trkpt lat="50.48715" lon="5.11464">
        <ele>95.01274291558</ele>
        <time>2017-04-29T14:07:22Z</time>
      </trkpt>
      <trkpt lat="50.48751" lon="5.11462">
        <ele>92.191692895878</ele>
        <time>2017-04-29T14:07:27Z</time>
      </trkpt>
      <trkpt lat="50.48784" lon="5.1146">
        <ele>91.196916243814</ele>
        <time>2017-04-29T14:07:32Z</time>
      </trkpt>
      <trkpt lat="50.48815" lon="5.11458">
        <ele>91.959409432957</ele>
        <time>2017-04-29T14:07:37Z</time>
      </trkpt>
      <trkpt lat="50.4884" lon="5.11452">
        <ele>93.369098354537</ele>
        <time>2017-04-29T14:07:41Z</time>
      </trkpt>
      <trkpt lat="50.48873" lon="5.11451">
        <ele>94.614596361515</ele>
        <time>2017-04-29T14:07:46Z</time>
      </trkpt>
      <trkpt lat="50.48908" lon="5.11446">
        <ele>93.973463593218</ele>
        <time>2017-04-29T14:07:51Z</time>
      </trkpt>
      <trkpt lat="50.48935" lon="5.11443">
        <ele>90.839260631616</ele>
        <time>2017-04-29T14:07:55Z</time>
      </trkpt>
      <trkpt lat="50.48956" lon="5.11442">
        <ele>87.091853492514</ele>
        <time>2017-04-29T14:07:59Z</time>
      </trkpt>
      <trkpt lat="50.48974" lon="5.1144">
        <ele>86.963560349201</ele>
        <time>2017-04-29T14:08:04Z</time>
      </trkpt>
      <trkpt lat="50.49" lon="5.11438">
        <ele>86.839379717759</ele>
        <time>2017-04-29T14:08:08Z</time>
      </trkpt>
      <trkpt lat="50.49025" lon="5.11434">
        <ele>86.40845452639</ele>
        <time>2017-04-29T14:08:12Z</time>
      </trkpt>
      <trkpt lat="50.49058" lon="5.11421">
        <ele>85.600360312957</ele>
        <time>2017-04-29T14:08:17Z</time>
      </trkpt>
      <trkpt lat="50.49084" lon="5.11396">
        <ele>85.383591978096</ele>
        <time>2017-04-29T14:08:21Z</time>
      </trkpt>
      <trkpt lat="50.49114" lon="5.11369">
        <ele>84.664709548009</ele>
        <time>2017-04-29T14:08:26Z</time>
      </trkpt>
      <trkpt lat="50.4914" lon="5.11362">
        <ele>83.751863133223</ele>
        <time>2017-04-29T14:08:30Z</time>
      </trkpt>
      <trkpt lat="50.49167" lon="5.11359">
        <ele>84.181760964484</ele>
        <time>2017-04-29T14:08:34Z</time>
      </trkpt>
      <trkpt lat="50.492" lon="5.11359">
        <ele>82.591611250105</ele>
        <time>2017-04-29T14:08:39Z</time>
      </trkpt>
      <trkpt lat="50.4923" lon="5.11352">
        <ele>83.132392976463</ele>
        <time>2017-04-29T14:08:44Z</time>
      </trkpt>
      <trkpt lat="50.49252" lon="5.1134">
        <ele>84.327752399218</ele>
        <time>2017-04-29T14:08:48Z</time>
      </trkpt>
      <trkpt lat="50.49272" lon="5.11328">
        <ele>84.679178683644</ele>
        <time>2017-04-29T14:08:52Z</time>
      </trkpt>
      <trkpt lat="50.49291" lon="5.11327">
        <ele>82.631930751118</ele>
        <time>2017-04-29T14:08:56Z</time>
      </trkpt>
      <trkpt lat="50.49311" lon="5.11328">
        <ele>80.008766612289</ele>
        <time>2017-04-29T14:09:00Z</time>
      </trkpt>
      <trkpt lat="50.49342" lon="5.11317">
        <ele>79.356538590449</ele>
        <time>2017-04-29T14:09:05Z</time>
      </trkpt>
      <trkpt lat="50.49371" lon="5.11304">
        <ele>80.606942306008</ele>
        <time>2017-04-29T14:09:09Z</time>
      </trkpt>
      <trkpt lat="50.49406" lon="5.11285">
        <ele>80.269922429707</ele>
        <time>2017-04-29T14:09:14Z</time>
      </trkpt>
      <trkpt lat="50.49436" lon="5.11257">
        <ele>77.190972794465</ele>
        <time>2017-04-29T14:09:19Z</time>
      </trkpt>
      <trkpt lat="50.49447" lon="5.11233">
        <ele>76.23998092984</ele>
        <time>2017-04-29T14:09:23Z</time>
      </trkpt>
      <trkpt lat="50.49452" lon="5.11223">
        <ele>75.951463459976</ele>
        <time>2017-04-29T14:09:27Z</time>
      </trkpt>
      <trkpt lat="50.49465" lon="5.11206">
        <ele>75.391677940584</ele>
        <time>2017-04-29T14:09:32Z</time>
      </trkpt>
      <trkpt lat="50.49476" lon="5.11177">
        <ele>77.039687988223</ele>
        <time>2017-04-29T14:09:37Z</time>
      </trkpt>
      <trkpt lat="50.4947" lon="5.11138">
        <ele>79.101149316095</ele>
        <time>2017-04-29T14:09:41Z</time>
      </trkpt>
      <trkpt lat="50.49462" lon="5.11096">
        <ele>79.928658909382</ele>
        <time>2017-04-29T14:09:45Z</time>
      </trkpt>
      <trkpt lat="50.4945" lon="5.11045">
        <ele>79.34543188758</ele>
        <time>2017-04-29T14:09:50Z</time>
      </trkpt>
      <trkpt lat="50.49438" lon="5.10991">
        <ele>78.732802452975</ele>
        <time>2017-04-29T14:09:55Z</time>
      </trkpt>
      <trkpt lat="50.49426" lon="5.10941">
        <ele>77.540385864039</ele>
        <time>2017-04-29T14:10:00Z</time>
      </trkpt>
      <trkpt lat="50.49416" lon="5.10902">
        <ele>76.177048802931</ele>
        <time>2017-04-29T14:10:04Z</time>
      </trkpt>
      <trkpt lat="50.49405" lon="5.1085">
        <ele>75.278095025781</ele>
        <time>2017-04-29T14:10:09Z</time>
      </trkpt>
      <trkpt lat="50.49394" lon="5.10806">
        <ele>78.52442333831</ele>
        <time>2017-04-29T14:10:13Z</time>
      </trkpt>
      <trkpt lat="50.49384" lon="5.10765">
        <ele>81.104637197616</ele>
        <time>2017-04-29T14:10:17Z</time>
      </trkpt>
      <trkpt lat="50.4937" lon="5.10718">
        <ele>80.103820304975</ele>
        <time>2017-04-29T14:10:22Z</time>
      </trkpt>
      <trkpt lat="50.49361" lon="5.10674">
        <ele>79.824113466603</ele>
        <time>2017-04-29T14:10:26Z</time>
      </trkpt>
      <trkpt lat="50.49351" lon="5.10626">
        <ele>77.711266913675</ele>
        <time>2017-04-29T14:10:31Z</time>
      </trkpt>
      <trkpt lat="50.49339" lon="5.10571">
        <ele>78.870736945481</ele>
        <time>2017-04-29T14:10:36Z</time>
      </trkpt>
      <trkpt lat="50.49331" lon="5.10533">
        <ele>79.440970929494</ele>
        <time>2017-04-29T14:10:40Z</time>
      </trkpt>
      <trkpt lat="50.49319" lon="5.1048">
        <ele>80.521386842816</ele>
        <time>2017-04-29T14:10:45Z</time>
      </trkpt>
      <trkpt lat="50.49308" lon="5.10434">
        <ele>81.222193841787</ele>
        <time>2017-04-29T14:10:50Z</time>
      </trkpt>
      <trkpt lat="50.49297" lon="5.10387">
        <ele>78.053571007576</ele>
        <time>2017-04-29T14:10:55Z</time>
      </trkpt>
      <trkpt lat="50.49287" lon="5.10341">
        <ele>73.235025432325</ele>
        <time>2017-04-29T14:11:00Z</time>
      </trkpt>
      <trkpt lat="50.4928" lon="5.10306">
        <ele>69.570549644427</ele>
        <time>2017-04-29T14:11:04Z</time>
      </trkpt>
      <trkpt lat="50.49279" lon="5.10265">
        <ele>69.343243659883</ele>
        <time>2017-04-29T14:11:09Z</time>
      </trkpt>
      <trkpt lat="50.4926" lon="5.10241">
        <ele>70.25665024622</ele>
        <time>2017-04-29T14:11:13Z</time>
      </trkpt>
      <trkpt lat="50.4925" lon="5.10185">
        <ele>68.177834084904</ele>
        <time>2017-04-29T14:11:18Z</time>
      </trkpt>
      <trkpt lat="50.4924" lon="5.10146">
        <ele>67.535053957383</ele>
        <time>2017-04-29T14:11:22Z</time>
      </trkpt>
      <trkpt lat="50.4923" lon="5.10107">
        <ele>67.513757057621</ele>
        <time>2017-04-29T14:11:26Z</time>
      </trkpt>
      <trkpt lat="50.49219" lon="5.10065">
        <ele>68.363358786864</ele>
        <time>2017-04-29T14:11:30Z</time>
      </trkpt>
      <trkpt lat="50.49203" lon="5.10018">
        <ele>71.621866717675</ele>
        <time>2017-04-29T14:11:35Z</time>
      </trkpt>
      <trkpt lat="50.49194" lon="5.0998">
        <ele>72.616052046152</ele>
        <time>2017-04-29T14:11:39Z</time>
      </trkpt>
      <trkpt lat="50.49182" lon="5.09931">
        <ele>73.404778996092</ele>
        <time>2017-04-29T14:11:44Z</time>
      </trkpt>
      <trkpt lat="50.49169" lon="5.09882">
        <ele>74.620151401</ele>
        <time>2017-04-29T14:11:49Z</time>
      </trkpt>
      <trkpt lat="50.49159" lon="5.09835">
        <ele>76.115377502921</ele>
        <time>2017-04-29T14:11:54Z</time>
      </trkpt>
      <trkpt lat="50.49151" lon="5.09804">
        <ele>76.494169477867</ele>
        <time>2017-04-29T14:11:58Z</time>
      </trkpt>
      <trkpt lat="50.49143" lon="5.09768">
        <ele>76.152693270961</ele>
        <time>2017-04-29T14:12:02Z</time>
      </trkpt>
      <trkpt lat="50.49136" lon="5.09731">
        <ele>75.623760508208</ele>
        <time>2017-04-29T14:12:07Z</time>
      </trkpt>
      <trkpt lat="50.49131" lon="5.09705">
        <ele>74.627365741284</ele>
        <time>2017-04-29T14:12:11Z</time>
      </trkpt>
      <trkpt lat="50.49128" lon="5.09683">
        <ele>74.209052548617</ele>
        <time>2017-04-29T14:12:15Z</time>
      </trkpt>
      <trkpt lat="50.49122" lon="5.09659">
        <ele>73.282433259252</ele>
        <time>2017-04-29T14:12:19Z</time>
      </trkpt>
      <trkpt lat="50.49121" lon="5.0962">
        <ele>72.082387416586</ele>
        <time>2017-04-29T14:12:23Z</time>
      </trkpt>
      <trkpt lat="50.49121" lon="5.09576">
        <ele>75.950205559135</ele>
        <time>2017-04-29T14:12:28Z</time>
      </trkpt>
      <trkpt lat="50.49119" lon="5.09543">
        <ele>80.653723989379</ele>
        <time>2017-04-29T14:12:32Z</time>
      </trkpt>
      <trkpt lat="50.49117" lon="5.09507">
        <ele>80.973624809738</ele>
        <time>2017-04-29T14:12:36Z</time>
      </trkpt>
      <trkpt lat="50.49119" lon="5.09459">
        <ele>78.005287065148</ele>
        <time>2017-04-29T14:12:41Z</time>
      </trkpt>
      <trkpt lat="50.49109" lon="5.09437">
        <ele>80.495297203451</ele>
        <time>2017-04-29T14:12:46Z</time>
      </trkpt>
      <trkpt lat="50.49089" lon="5.09442">
        <ele>82.73909988237</ele>
        <time>2017-04-29T14:12:50Z</time>
      </trkpt>
      <trkpt lat="50.49059" lon="5.09445">
        <ele>85.462793460303</ele>
        <time>2017-04-29T14:12:55Z</time>
      </trkpt>
      <trkpt lat="50.49034" lon="5.09451">
        <ele>84.819207075376</ele>
        <time>2017-04-29T14:12:59Z</time>
      </trkpt>
      <trkpt lat="50.4901" lon="5.09458">
        <ele>84.901240690878</ele>
        <time>2017-04-29T14:13:03Z</time>
      </trkpt>
      <trkpt lat="50.48983" lon="5.09463">
        <ele>83.530734070758</ele>
        <time>2017-04-29T14:13:08Z</time>
      </trkpt>
      <trkpt lat="50.48956" lon="5.0947">
        <ele>82.241157155321</ele>
        <time>2017-04-29T14:13:13Z</time>
      </trkpt>
      <trkpt lat="50.48929" lon="5.09474">
        <ele>82.173784230377</ele>
        <time>2017-04-29T14:13:18Z</time>
      </trkpt>
      <trkpt lat="50.48904" lon="5.09476">
        <ele>79.517960572982</ele>
        <time>2017-04-29T14:13:23Z</time>
      </trkpt>
      <trkpt lat="50.48892" lon="5.09467">
        <ele>75.582368270394</ele>
        <time>2017-04-29T14:13:27Z</time>
      </trkpt>
      <trkpt lat="50.48887" lon="5.09433">
        <ele>70.349165524261</ele>
        <time>2017-04-29T14:13:32Z</time>
      </trkpt>
      <trkpt lat="50.4888" lon="5.09391">
        <ele>69.850800305175</ele>
        <time>2017-04-29T14:13:37Z</time>
      </trkpt>
      <trkpt lat="50.48874" lon="5.0935">
        <ele>71.940826266569</ele>
        <time>2017-04-29T14:13:42Z</time>
      </trkpt>
      <trkpt lat="50.48869" lon="5.09315">
        <ele>72.983887076882</ele>
        <time>2017-04-29T14:13:46Z</time>
      </trkpt>
      <trkpt lat="50.48865" lon="5.0928">
        <ele>73.663148501086</ele>
        <time>2017-04-29T14:13:50Z</time>
      </trkpt>
      <trkpt lat="50.48861" lon="5.09246">
        <ele>73.427918527043</ele>
        <time>2017-04-29T14:13:54Z</time>
      </trkpt>
      <trkpt lat="50.48856" lon="5.09201">
        <ele>71.564510075626</ele>
        <time>2017-04-29T14:13:59Z</time>
      </trkpt>
      <trkpt lat="50.48865" lon="5.09176">
        <ele>68.453451486504</ele>
        <time>2017-04-29T14:14:04Z</time>
      </trkpt>
      <trkpt lat="50.48884" lon="5.09163">
        <ele>69.340778613436</ele>
        <time>2017-04-29T14:14:08Z</time>
      </trkpt>
      <trkpt lat="50.48889" lon="5.0913">
        <ele>69.728084380826</ele>
        <time>2017-04-29T14:14:12Z</time>
      </trkpt>
      <trkpt lat="50.48894" lon="5.09106">
        <ele>68.545844030299</ele>
        <time>2017-04-29T14:14:17Z</time>
      </trkpt>
      <trkpt lat="50.48909" lon="5.09113">
        <ele>66.473999053901</ele>
        <time>2017-04-29T14:14:21Z</time>
      </trkpt>
      <trkpt lat="50.48919" lon="5.09114">
        <ele>66.110887954388</ele>
        <time>2017-04-29T14:14:25Z</time>
      </trkpt>
      <trkpt lat="50.48926" lon="5.09113">
        <ele>65.717081050252</ele>
        <time>2017-04-29T14:14:30Z</time>
      </trkpt>
      <trkpt lat="50.48936" lon="5.0911">
        <ele>65.267338648503</ele>
        <time>2017-04-29T14:14:35Z</time>
      </trkpt>
      <trkpt lat="50.48936" lon="5.0911">
        <ele>64.739894066088</ele>
        <time>2017-04-29T14:15:00Z</time>
      </trkpt>
      <trkpt lat="50.48936" lon="5.0911">
        <ele>64.739894066088</ele>
        <time>2017-04-29T14:15:00Z</time>
      </trkpt>
    </trkseg>
  </trk>
</gpx>